<?xml version="1.0" encoding="UTF-8" standalone="no" ?>
<gpx xmlns="http://www.topografix.com/GPX/1/1" xmlns:xsi="http://www.w3.org/2001/XMLSchema-instance" xsi:schemaLocation="http://www.topografix.com/GPX/1/1 http://www.topografix.com/GPX/1/1/gpx.xsd" version="1.1" creator="VisuGPX - https://www.visugpx.com">
  <metadata>
    <name>Trek au Ladakh</name>
    <desc><![CDATA[Trek au Ladakh - Septembre 2015]]></desc>
  </metadata>
  <trk>
    <name><![CDATA[Camp de Tachungste (4250m) - Camp de Nimaling (4800m)]]></name>
    <trkseg>
      <trkpt lat="33.81153" lon="77.53362">
        <ele>4236.2</ele>
        <time>2015-09-04T02:42:52Z</time>
      </trkpt>
      <trkpt lat="33.81154" lon="77.53371">
        <ele>4236.2</ele>
        <time>2015-09-04T02:43:03Z</time>
      </trkpt>
      <trkpt lat="33.81153" lon="77.53375">
        <ele>4236.2</ele>
        <time>2015-09-04T02:43:06Z</time>
      </trkpt>
      <trkpt lat="33.8115" lon="77.53388">
        <ele>4237.2</ele>
        <time>2015-09-04T02:43:25Z</time>
      </trkpt>
      <trkpt lat="33.8115" lon="77.53397">
        <ele>4237.8</ele>
        <time>2015-09-04T02:43:37Z</time>
      </trkpt>
      <trkpt lat="33.8115" lon="77.53409">
        <ele>4238.2</ele>
        <time>2015-09-04T02:43:59Z</time>
      </trkpt>
      <trkpt lat="33.8115" lon="77.53415">
        <ele>4238.8</ele>
        <time>2015-09-04T02:44:03Z</time>
      </trkpt>
      <trkpt lat="33.81147" lon="77.53426">
        <ele>4238.8</ele>
        <time>2015-09-04T02:44:12Z</time>
      </trkpt>
      <trkpt lat="33.81146" lon="77.53426">
        <ele>4239</ele>
        <time>2015-09-04T02:44:33Z</time>
      </trkpt>
      <trkpt lat="33.81146" lon="77.53432">
        <ele>4239.4</ele>
        <time>2015-09-04T02:44:40Z</time>
      </trkpt>
      <trkpt lat="33.81146" lon="77.53438">
        <ele>4239.6</ele>
        <time>2015-09-04T02:44:46Z</time>
      </trkpt>
      <trkpt lat="33.81145" lon="77.53447">
        <ele>4240.4</ele>
        <time>2015-09-04T02:44:55Z</time>
      </trkpt>
      <trkpt lat="33.81143" lon="77.53453">
        <ele>4241.6</ele>
        <time>2015-09-04T02:45:04Z</time>
      </trkpt>
      <trkpt lat="33.81145" lon="77.5347">
        <ele>4242.4</ele>
        <time>2015-09-04T02:45:15Z</time>
      </trkpt>
      <trkpt lat="33.81146" lon="77.53472">
        <ele>4242.6</ele>
        <time>2015-09-04T02:45:18Z</time>
      </trkpt>
      <trkpt lat="33.81144" lon="77.53481">
        <ele>4243.6</ele>
        <time>2015-09-04T02:45:34Z</time>
      </trkpt>
      <trkpt lat="33.81143" lon="77.53483">
        <ele>4243.8</ele>
        <time>2015-09-04T02:45:36Z</time>
      </trkpt>
      <trkpt lat="33.81142" lon="77.53498">
        <ele>4244.4</ele>
        <time>2015-09-04T02:45:57Z</time>
      </trkpt>
      <trkpt lat="33.81142" lon="77.53501">
        <ele>4244.6</ele>
        <time>2015-09-04T02:46:03Z</time>
      </trkpt>
      <trkpt lat="33.81141" lon="77.53512">
        <ele>4245.6</ele>
        <time>2015-09-04T02:46:14Z</time>
      </trkpt>
      <trkpt lat="33.81141" lon="77.53519">
        <ele>4245.4</ele>
        <time>2015-09-04T02:46:20Z</time>
      </trkpt>
      <trkpt lat="33.81141" lon="77.53522">
        <ele>4245.6</ele>
        <time>2015-09-04T02:46:23Z</time>
      </trkpt>
      <trkpt lat="33.81141" lon="77.53523">
        <ele>4245.8</ele>
        <time>2015-09-04T02:46:24Z</time>
      </trkpt>
      <trkpt lat="33.81141" lon="77.53533">
        <ele>4246.8</ele>
        <time>2015-09-04T02:46:36Z</time>
      </trkpt>
      <trkpt lat="33.8114" lon="77.53537">
        <ele>4247.6</ele>
        <time>2015-09-04T02:46:42Z</time>
      </trkpt>
      <trkpt lat="33.81139" lon="77.53541">
        <ele>4247.8</ele>
        <time>2015-09-04T02:46:48Z</time>
      </trkpt>
      <trkpt lat="33.81139" lon="77.5356">
        <ele>4248.8</ele>
        <time>2015-09-04T02:47:06Z</time>
      </trkpt>
      <trkpt lat="33.81142" lon="77.53569">
        <ele>4250</ele>
        <time>2015-09-04T02:47:13Z</time>
      </trkpt>
      <trkpt lat="33.81141" lon="77.53579">
        <ele>4251</ele>
        <time>2015-09-04T02:47:29Z</time>
      </trkpt>
      <trkpt lat="33.81141" lon="77.53587">
        <ele>4252</ele>
        <time>2015-09-04T02:47:40Z</time>
      </trkpt>
      <trkpt lat="33.81142" lon="77.53595">
        <ele>4253.2</ele>
        <time>2015-09-04T02:47:50Z</time>
      </trkpt>
      <trkpt lat="33.81141" lon="77.53603">
        <ele>4254.2</ele>
        <time>2015-09-04T02:48:04Z</time>
      </trkpt>
      <trkpt lat="33.81141" lon="77.53603">
        <ele>4254.6</ele>
        <time>2015-09-04T02:48:09Z</time>
      </trkpt>
      <trkpt lat="33.81142" lon="77.5361">
        <ele>4255.2</ele>
        <time>2015-09-04T02:48:16Z</time>
      </trkpt>
      <trkpt lat="33.81145" lon="77.53621">
        <ele>4256.2</ele>
        <time>2015-09-04T02:48:31Z</time>
      </trkpt>
      <trkpt lat="33.81149" lon="77.53633">
        <ele>4257.2</ele>
        <time>2015-09-04T02:48:45Z</time>
      </trkpt>
      <trkpt lat="33.81152" lon="77.53635">
        <ele>4257.4</ele>
        <time>2015-09-04T02:48:48Z</time>
      </trkpt>
      <trkpt lat="33.81145" lon="77.53639">
        <ele>4257.8</ele>
        <time>2015-09-04T02:48:54Z</time>
      </trkpt>
      <trkpt lat="33.81143" lon="77.53641">
        <ele>4258</ele>
        <time>2015-09-04T02:48:56Z</time>
      </trkpt>
      <trkpt lat="33.81142" lon="77.53643">
        <ele>4258</ele>
        <time>2015-09-04T02:48:58Z</time>
      </trkpt>
      <trkpt lat="33.81143" lon="77.53648">
        <ele>4258.4</ele>
        <time>2015-09-04T02:49:03Z</time>
      </trkpt>
      <trkpt lat="33.81143" lon="77.53656">
        <ele>4259.4</ele>
        <time>2015-09-04T02:49:16Z</time>
      </trkpt>
      <trkpt lat="33.81138" lon="77.5366">
        <ele>4260.4</ele>
        <time>2015-09-04T02:49:27Z</time>
      </trkpt>
      <trkpt lat="33.81132" lon="77.53662">
        <ele>4260.8</ele>
        <time>2015-09-04T02:49:34Z</time>
      </trkpt>
      <trkpt lat="33.81129" lon="77.5366">
        <ele>4261.2</ele>
        <time>2015-09-04T02:49:37Z</time>
      </trkpt>
      <trkpt lat="33.81127" lon="77.53659">
        <ele>4261.4</ele>
        <time>2015-09-04T02:49:39Z</time>
      </trkpt>
      <trkpt lat="33.81126" lon="77.5366">
        <ele>4262.4</ele>
        <time>2015-09-04T02:49:48Z</time>
      </trkpt>
      <trkpt lat="33.81121" lon="77.53672">
        <ele>4263.2</ele>
        <time>2015-09-04T02:49:57Z</time>
      </trkpt>
      <trkpt lat="33.81119" lon="77.53674">
        <ele>4263.2</ele>
        <time>2015-09-04T02:50:01Z</time>
      </trkpt>
      <trkpt lat="33.81118" lon="77.53674">
        <ele>4263.6</ele>
        <time>2015-09-04T02:50:03Z</time>
      </trkpt>
      <trkpt lat="33.81116" lon="77.53682">
        <ele>4264.6</ele>
        <time>2015-09-04T02:50:17Z</time>
      </trkpt>
      <trkpt lat="33.81116" lon="77.53682">
        <ele>4265.6</ele>
        <time>2015-09-04T02:50:27Z</time>
      </trkpt>
      <trkpt lat="33.81115" lon="77.53683">
        <ele>4265.8</ele>
        <time>2015-09-04T02:50:29Z</time>
      </trkpt>
      <trkpt lat="33.81111" lon="77.53688">
        <ele>4266.4</ele>
        <time>2015-09-04T02:50:37Z</time>
      </trkpt>
      <trkpt lat="33.81113" lon="77.5369">
        <ele>4266.6</ele>
        <time>2015-09-04T02:50:39Z</time>
      </trkpt>
      <trkpt lat="33.81116" lon="77.53703">
        <ele>4267.8</ele>
        <time>2015-09-04T02:50:51Z</time>
      </trkpt>
      <trkpt lat="33.81126" lon="77.53715">
        <ele>4268.2</ele>
        <time>2015-09-04T02:51:12Z</time>
      </trkpt>
      <trkpt lat="33.8113" lon="77.53723">
        <ele>4268.8</ele>
        <time>2015-09-04T02:51:26Z</time>
      </trkpt>
      <trkpt lat="33.81129" lon="77.53732">
        <ele>4269.8</ele>
        <time>2015-09-04T02:51:41Z</time>
      </trkpt>
      <trkpt lat="33.81138" lon="77.5374">
        <ele>4270.4</ele>
        <time>2015-09-04T02:51:59Z</time>
      </trkpt>
      <trkpt lat="33.8114" lon="77.53751">
        <ele>4271</ele>
        <time>2015-09-04T02:52:12Z</time>
      </trkpt>
      <trkpt lat="33.81139" lon="77.53752">
        <ele>4271.2</ele>
        <time>2015-09-04T02:52:14Z</time>
      </trkpt>
      <trkpt lat="33.81138" lon="77.53757">
        <ele>4272</ele>
        <time>2015-09-04T02:52:23Z</time>
      </trkpt>
      <trkpt lat="33.81135" lon="77.5376">
        <ele>4273</ele>
        <time>2015-09-04T02:52:32Z</time>
      </trkpt>
      <trkpt lat="33.81134" lon="77.53769">
        <ele>4274</ele>
        <time>2015-09-04T02:52:43Z</time>
      </trkpt>
      <trkpt lat="33.81133" lon="77.53774">
        <ele>4274.2</ele>
        <time>2015-09-04T02:52:47Z</time>
      </trkpt>
      <trkpt lat="33.81133" lon="77.53778">
        <ele>4274.6</ele>
        <time>2015-09-04T02:52:51Z</time>
      </trkpt>
      <trkpt lat="33.81133" lon="77.53781">
        <ele>4274.8</ele>
        <time>2015-09-04T02:52:54Z</time>
      </trkpt>
      <trkpt lat="33.81133" lon="77.53784">
        <ele>4275</ele>
        <time>2015-09-04T02:52:57Z</time>
      </trkpt>
      <trkpt lat="33.81143" lon="77.5379">
        <ele>4276.2</ele>
        <time>2015-09-04T02:53:22Z</time>
      </trkpt>
      <trkpt lat="33.81144" lon="77.5379">
        <ele>4276.6</ele>
        <time>2015-09-04T02:53:24Z</time>
      </trkpt>
      <trkpt lat="33.81145" lon="77.53795">
        <ele>4277.4</ele>
        <time>2015-09-04T02:53:33Z</time>
      </trkpt>
      <trkpt lat="33.81149" lon="77.53803">
        <ele>4278.4</ele>
        <time>2015-09-04T02:53:52Z</time>
      </trkpt>
      <trkpt lat="33.81152" lon="77.53809">
        <ele>4279</ele>
        <time>2015-09-04T02:54:14Z</time>
      </trkpt>
      <trkpt lat="33.81154" lon="77.53808">
        <ele>4279.4</ele>
        <time>2015-09-04T02:54:20Z</time>
      </trkpt>
      <trkpt lat="33.81157" lon="77.53807">
        <ele>4279.6</ele>
        <time>2015-09-04T02:54:41Z</time>
      </trkpt>
      <trkpt lat="33.81156" lon="77.53809">
        <ele>4279.6</ele>
        <time>2015-09-04T02:54:42Z</time>
      </trkpt>
      <trkpt lat="33.81155" lon="77.53816">
        <ele>4280.6</ele>
        <time>2015-09-04T02:55:01Z</time>
      </trkpt>
      <trkpt lat="33.81159" lon="77.53817">
        <ele>4280.8</ele>
        <time>2015-09-04T02:55:06Z</time>
      </trkpt>
      <trkpt lat="33.81153" lon="77.53821">
        <ele>4281.6</ele>
        <time>2015-09-04T02:55:14Z</time>
      </trkpt>
      <trkpt lat="33.81151" lon="77.53824">
        <ele>4281.8</ele>
        <time>2015-09-04T02:55:17Z</time>
      </trkpt>
      <trkpt lat="33.8115" lon="77.53825">
        <ele>4282.2</ele>
        <time>2015-09-04T02:55:21Z</time>
      </trkpt>
      <trkpt lat="33.81152" lon="77.53826">
        <ele>4282.4</ele>
        <time>2015-09-04T02:55:23Z</time>
      </trkpt>
      <trkpt lat="33.81152" lon="77.53829">
        <ele>4282.6</ele>
        <time>2015-09-04T02:55:25Z</time>
      </trkpt>
      <trkpt lat="33.81153" lon="77.5383">
        <ele>4282.8</ele>
        <time>2015-09-04T02:55:28Z</time>
      </trkpt>
      <trkpt lat="33.81163" lon="77.53831">
        <ele>4283.6</ele>
        <time>2015-09-04T02:55:37Z</time>
      </trkpt>
      <trkpt lat="33.81169" lon="77.53832">
        <ele>4284.6</ele>
        <time>2015-09-04T02:55:47Z</time>
      </trkpt>
      <trkpt lat="33.81177" lon="77.53834">
        <ele>4285.8</ele>
        <time>2015-09-04T02:55:59Z</time>
      </trkpt>
      <trkpt lat="33.81175" lon="77.53837">
        <ele>4286.8</ele>
        <time>2015-09-04T02:56:10Z</time>
      </trkpt>
      <trkpt lat="33.81171" lon="77.53841">
        <ele>4287.8</ele>
        <time>2015-09-04T02:56:26Z</time>
      </trkpt>
      <trkpt lat="33.81173" lon="77.53849">
        <ele>4288.8</ele>
        <time>2015-09-04T02:56:38Z</time>
      </trkpt>
      <trkpt lat="33.81182" lon="77.53853">
        <ele>4289.8</ele>
        <time>2015-09-04T02:56:51Z</time>
      </trkpt>
      <trkpt lat="33.81178" lon="77.5386">
        <ele>4290.6</ele>
        <time>2015-09-04T02:57:00Z</time>
      </trkpt>
      <trkpt lat="33.81176" lon="77.53862">
        <ele>4291</ele>
        <time>2015-09-04T02:57:03Z</time>
      </trkpt>
      <trkpt lat="33.81168" lon="77.53862">
        <ele>4292</ele>
        <time>2015-09-04T02:57:14Z</time>
      </trkpt>
      <trkpt lat="33.81165" lon="77.53865">
        <ele>4293</ele>
        <time>2015-09-04T02:57:23Z</time>
      </trkpt>
      <trkpt lat="33.81167" lon="77.5387">
        <ele>4294.2</ele>
        <time>2015-09-04T02:57:35Z</time>
      </trkpt>
      <trkpt lat="33.81171" lon="77.53877">
        <ele>4295.2</ele>
        <time>2015-09-04T02:57:44Z</time>
      </trkpt>
      <trkpt lat="33.81167" lon="77.53884">
        <ele>4295.8</ele>
        <time>2015-09-04T02:57:54Z</time>
      </trkpt>
      <trkpt lat="33.81166" lon="77.53887">
        <ele>4296.2</ele>
        <time>2015-09-04T02:57:59Z</time>
      </trkpt>
      <trkpt lat="33.81171" lon="77.53889">
        <ele>4297</ele>
        <time>2015-09-04T02:58:05Z</time>
      </trkpt>
      <trkpt lat="33.81173" lon="77.5389">
        <ele>4297.2</ele>
        <time>2015-09-04T02:58:09Z</time>
      </trkpt>
      <trkpt lat="33.81173" lon="77.53899">
        <ele>4298.4</ele>
        <time>2015-09-04T02:58:25Z</time>
      </trkpt>
      <trkpt lat="33.81177" lon="77.53903">
        <ele>4298.6</ele>
        <time>2015-09-04T02:58:33Z</time>
      </trkpt>
      <trkpt lat="33.81176" lon="77.53904">
        <ele>4298.8</ele>
        <time>2015-09-04T02:58:35Z</time>
      </trkpt>
      <trkpt lat="33.81174" lon="77.53912">
        <ele>4299.2</ele>
        <time>2015-09-04T02:58:45Z</time>
      </trkpt>
      <trkpt lat="33.81174" lon="77.53914">
        <ele>4299.4</ele>
        <time>2015-09-04T02:58:46Z</time>
      </trkpt>
      <trkpt lat="33.81173" lon="77.5392">
        <ele>4299.8</ele>
        <time>2015-09-04T02:58:52Z</time>
      </trkpt>
      <trkpt lat="33.81173" lon="77.53926">
        <ele>4300.4</ele>
        <time>2015-09-04T02:59:01Z</time>
      </trkpt>
      <trkpt lat="33.81168" lon="77.53929">
        <ele>4301.4</ele>
        <time>2015-09-04T02:59:13Z</time>
      </trkpt>
      <trkpt lat="33.81164" lon="77.53933">
        <ele>4302.4</ele>
        <time>2015-09-04T02:59:30Z</time>
      </trkpt>
      <trkpt lat="33.81166" lon="77.5394">
        <ele>4303.6</ele>
        <time>2015-09-04T02:59:41Z</time>
      </trkpt>
      <trkpt lat="33.81167" lon="77.5395">
        <ele>4304.8</ele>
        <time>2015-09-04T02:59:55Z</time>
      </trkpt>
      <trkpt lat="33.81167" lon="77.53954">
        <ele>4305.8</ele>
        <time>2015-09-04T03:00:05Z</time>
      </trkpt>
      <trkpt lat="33.81169" lon="77.5396">
        <ele>4306.8</ele>
        <time>2015-09-04T03:00:15Z</time>
      </trkpt>
      <trkpt lat="33.81171" lon="77.53966">
        <ele>4308</ele>
        <time>2015-09-04T03:00:25Z</time>
      </trkpt>
      <trkpt lat="33.81171" lon="77.53971">
        <ele>4309</ele>
        <time>2015-09-04T03:00:52Z</time>
      </trkpt>
      <trkpt lat="33.81172" lon="77.53976">
        <ele>4310</ele>
        <time>2015-09-04T03:01:02Z</time>
      </trkpt>
      <trkpt lat="33.81177" lon="77.5398">
        <ele>4311.2</ele>
        <time>2015-09-04T03:01:12Z</time>
      </trkpt>
      <trkpt lat="33.8118" lon="77.53983">
        <ele>4312.2</ele>
        <time>2015-09-04T03:01:28Z</time>
      </trkpt>
      <trkpt lat="33.8118" lon="77.53989">
        <ele>4313.2</ele>
        <time>2015-09-04T03:01:37Z</time>
      </trkpt>
      <trkpt lat="33.81179" lon="77.53997">
        <ele>4314.4</ele>
        <time>2015-09-04T03:01:49Z</time>
      </trkpt>
      <trkpt lat="33.81179" lon="77.54001">
        <ele>4315.4</ele>
        <time>2015-09-04T03:01:57Z</time>
      </trkpt>
      <trkpt lat="33.81179" lon="77.54005">
        <ele>4316.6</ele>
        <time>2015-09-04T03:02:08Z</time>
      </trkpt>
      <trkpt lat="33.8118" lon="77.54009">
        <ele>4317.6</ele>
        <time>2015-09-04T03:02:17Z</time>
      </trkpt>
      <trkpt lat="33.81178" lon="77.54016">
        <ele>4318.8</ele>
        <time>2015-09-04T03:02:29Z</time>
      </trkpt>
      <trkpt lat="33.81178" lon="77.54024">
        <ele>4319.8</ele>
        <time>2015-09-04T03:02:41Z</time>
      </trkpt>
      <trkpt lat="33.81177" lon="77.54033">
        <ele>4320.8</ele>
        <time>2015-09-04T03:02:53Z</time>
      </trkpt>
      <trkpt lat="33.81178" lon="77.54043">
        <ele>4321.8</ele>
        <time>2015-09-04T03:03:09Z</time>
      </trkpt>
      <trkpt lat="33.81176" lon="77.54047">
        <ele>4323</ele>
        <time>2015-09-04T03:03:16Z</time>
      </trkpt>
      <trkpt lat="33.81172" lon="77.5405">
        <ele>4324</ele>
        <time>2015-09-04T03:03:25Z</time>
      </trkpt>
      <trkpt lat="33.8117" lon="77.54055">
        <ele>4325</ele>
        <time>2015-09-04T03:03:34Z</time>
      </trkpt>
      <trkpt lat="33.81171" lon="77.54064">
        <ele>4326.2</ele>
        <time>2015-09-04T03:03:45Z</time>
      </trkpt>
      <trkpt lat="33.81171" lon="77.5407">
        <ele>4327.2</ele>
        <time>2015-09-04T03:03:56Z</time>
      </trkpt>
      <trkpt lat="33.81169" lon="77.54076">
        <ele>4328.2</ele>
        <time>2015-09-04T03:04:06Z</time>
      </trkpt>
      <trkpt lat="33.81167" lon="77.54083">
        <ele>4329</ele>
        <time>2015-09-04T03:04:14Z</time>
      </trkpt>
      <trkpt lat="33.81166" lon="77.54085">
        <ele>4329.4</ele>
        <time>2015-09-04T03:04:17Z</time>
      </trkpt>
      <trkpt lat="33.81169" lon="77.5409">
        <ele>4330.4</ele>
        <time>2015-09-04T03:04:27Z</time>
      </trkpt>
      <trkpt lat="33.81162" lon="77.54092">
        <ele>4331.4</ele>
        <time>2015-09-04T03:04:37Z</time>
      </trkpt>
      <trkpt lat="33.8116" lon="77.5409">
        <ele>4332.4</ele>
        <time>2015-09-04T03:04:45Z</time>
      </trkpt>
      <trkpt lat="33.8116" lon="77.54093">
        <ele>4333.4</ele>
        <time>2015-09-04T03:04:54Z</time>
      </trkpt>
      <trkpt lat="33.81158" lon="77.54094">
        <ele>4334.4</ele>
        <time>2015-09-04T03:05:02Z</time>
      </trkpt>
      <trkpt lat="33.81157" lon="77.54095">
        <ele>4334.6</ele>
        <time>2015-09-04T03:05:03Z</time>
      </trkpt>
      <trkpt lat="33.81155" lon="77.541">
        <ele>4335.8</ele>
        <time>2015-09-04T03:05:14Z</time>
      </trkpt>
      <trkpt lat="33.81154" lon="77.54105">
        <ele>4336.8</ele>
        <time>2015-09-04T03:05:22Z</time>
      </trkpt>
      <trkpt lat="33.81152" lon="77.54108">
        <ele>4337.8</ele>
        <time>2015-09-04T03:05:29Z</time>
      </trkpt>
      <trkpt lat="33.81146" lon="77.54115">
        <ele>4338.8</ele>
        <time>2015-09-04T03:05:44Z</time>
      </trkpt>
      <trkpt lat="33.81145" lon="77.54122">
        <ele>4340</ele>
        <time>2015-09-04T03:05:53Z</time>
      </trkpt>
      <trkpt lat="33.81147" lon="77.54127">
        <ele>4341</ele>
        <time>2015-09-04T03:06:02Z</time>
      </trkpt>
      <trkpt lat="33.81143" lon="77.5413">
        <ele>4342</ele>
        <time>2015-09-04T03:06:12Z</time>
      </trkpt>
      <trkpt lat="33.81141" lon="77.54133">
        <ele>4343.2</ele>
        <time>2015-09-04T03:06:21Z</time>
      </trkpt>
      <trkpt lat="33.8114" lon="77.54134">
        <ele>4344.2</ele>
        <time>2015-09-04T03:06:30Z</time>
      </trkpt>
      <trkpt lat="33.81133" lon="77.54135">
        <ele>4345.2</ele>
        <time>2015-09-04T03:06:42Z</time>
      </trkpt>
      <trkpt lat="33.81131" lon="77.54136">
        <ele>4346.4</ele>
        <time>2015-09-04T03:06:49Z</time>
      </trkpt>
      <trkpt lat="33.81127" lon="77.54138">
        <ele>4347.4</ele>
        <time>2015-09-04T03:06:58Z</time>
      </trkpt>
      <trkpt lat="33.81123" lon="77.54138">
        <ele>4348.6</ele>
        <time>2015-09-04T03:07:09Z</time>
      </trkpt>
      <trkpt lat="33.81119" lon="77.54142">
        <ele>4349.6</ele>
        <time>2015-09-04T03:07:18Z</time>
      </trkpt>
      <trkpt lat="33.81115" lon="77.54146">
        <ele>4350.8</ele>
        <time>2015-09-04T03:07:30Z</time>
      </trkpt>
      <trkpt lat="33.81112" lon="77.54147">
        <ele>4351.8</ele>
        <time>2015-09-04T03:07:39Z</time>
      </trkpt>
      <trkpt lat="33.8111" lon="77.54154">
        <ele>4352.8</ele>
        <time>2015-09-04T03:07:52Z</time>
      </trkpt>
      <trkpt lat="33.81107" lon="77.54158">
        <ele>4353.8</ele>
        <time>2015-09-04T03:08:00Z</time>
      </trkpt>
      <trkpt lat="33.81105" lon="77.54164">
        <ele>4355</ele>
        <time>2015-09-04T03:08:11Z</time>
      </trkpt>
      <trkpt lat="33.811" lon="77.54173">
        <ele>4356</ele>
        <time>2015-09-04T03:08:27Z</time>
      </trkpt>
      <trkpt lat="33.81093" lon="77.54174">
        <ele>4357</ele>
        <time>2015-09-04T03:08:39Z</time>
      </trkpt>
      <trkpt lat="33.81087" lon="77.54181">
        <ele>4358.2</ele>
        <time>2015-09-04T03:08:51Z</time>
      </trkpt>
      <trkpt lat="33.8108" lon="77.54187">
        <ele>4359.2</ele>
        <time>2015-09-04T03:09:04Z</time>
      </trkpt>
      <trkpt lat="33.81075" lon="77.54199">
        <ele>4360.2</ele>
        <time>2015-09-04T03:09:23Z</time>
      </trkpt>
      <trkpt lat="33.81071" lon="77.54206">
        <ele>4361.2</ele>
        <time>2015-09-04T03:09:34Z</time>
      </trkpt>
      <trkpt lat="33.81063" lon="77.54209">
        <ele>4362.4</ele>
        <time>2015-09-04T03:09:50Z</time>
      </trkpt>
      <trkpt lat="33.81058" lon="77.54219">
        <ele>4363.4</ele>
        <time>2015-09-04T03:10:04Z</time>
      </trkpt>
      <trkpt lat="33.81053" lon="77.54233">
        <ele>4364.4</ele>
        <time>2015-09-04T03:10:18Z</time>
      </trkpt>
      <trkpt lat="33.81052" lon="77.54247">
        <ele>4365.4</ele>
        <time>2015-09-04T03:10:34Z</time>
      </trkpt>
      <trkpt lat="33.8105" lon="77.54255">
        <ele>4366.6</ele>
        <time>2015-09-04T03:10:49Z</time>
      </trkpt>
      <trkpt lat="33.81048" lon="77.54258">
        <ele>4367.6</ele>
        <time>2015-09-04T03:11:00Z</time>
      </trkpt>
      <trkpt lat="33.81046" lon="77.54264">
        <ele>4368.6</ele>
        <time>2015-09-04T03:11:11Z</time>
      </trkpt>
      <trkpt lat="33.81044" lon="77.54272">
        <ele>4369.8</ele>
        <time>2015-09-04T03:11:23Z</time>
      </trkpt>
      <trkpt lat="33.81044" lon="77.54277">
        <ele>4371</ele>
        <time>2015-09-04T03:11:32Z</time>
      </trkpt>
      <trkpt lat="33.81042" lon="77.54285">
        <ele>4372</ele>
        <time>2015-09-04T03:11:43Z</time>
      </trkpt>
      <trkpt lat="33.81042" lon="77.54291">
        <ele>4373</ele>
        <time>2015-09-04T03:11:54Z</time>
      </trkpt>
      <trkpt lat="33.81041" lon="77.54296">
        <ele>4374</ele>
        <time>2015-09-04T03:12:05Z</time>
      </trkpt>
      <trkpt lat="33.81041" lon="77.54303">
        <ele>4375</ele>
        <time>2015-09-04T03:12:18Z</time>
      </trkpt>
      <trkpt lat="33.81039" lon="77.54308">
        <ele>4376</ele>
        <time>2015-09-04T03:12:30Z</time>
      </trkpt>
      <trkpt lat="33.81037" lon="77.54314">
        <ele>4377.2</ele>
        <time>2015-09-04T03:12:40Z</time>
      </trkpt>
      <trkpt lat="33.81035" lon="77.54317">
        <ele>4378.2</ele>
        <time>2015-09-04T03:12:48Z</time>
      </trkpt>
      <trkpt lat="33.81036" lon="77.54322">
        <ele>4379.2</ele>
        <time>2015-09-04T03:12:59Z</time>
      </trkpt>
      <trkpt lat="33.81035" lon="77.54327">
        <ele>4380.4</ele>
        <time>2015-09-04T03:13:09Z</time>
      </trkpt>
      <trkpt lat="33.81031" lon="77.54331">
        <ele>4381.4</ele>
        <time>2015-09-04T03:13:21Z</time>
      </trkpt>
      <trkpt lat="33.81028" lon="77.54334">
        <ele>4382.4</ele>
        <time>2015-09-04T03:13:30Z</time>
      </trkpt>
      <trkpt lat="33.81024" lon="77.54343">
        <ele>4383.6</ele>
        <time>2015-09-04T03:13:43Z</time>
      </trkpt>
      <trkpt lat="33.81021" lon="77.54346">
        <ele>4384.6</ele>
        <time>2015-09-04T03:13:55Z</time>
      </trkpt>
      <trkpt lat="33.81017" lon="77.54353">
        <ele>4385.6</ele>
        <time>2015-09-04T03:14:07Z</time>
      </trkpt>
      <trkpt lat="33.81016" lon="77.54358">
        <ele>4385.8</ele>
        <time>2015-09-04T03:14:10Z</time>
      </trkpt>
      <trkpt lat="33.81014" lon="77.54362">
        <ele>4386.6</ele>
        <time>2015-09-04T03:14:15Z</time>
      </trkpt>
      <trkpt lat="33.81009" lon="77.54366">
        <ele>4387.8</ele>
        <time>2015-09-04T03:14:32Z</time>
      </trkpt>
      <trkpt lat="33.81005" lon="77.5437">
        <ele>4388.8</ele>
        <time>2015-09-04T03:14:46Z</time>
      </trkpt>
      <trkpt lat="33.81002" lon="77.54368">
        <ele>4389.8</ele>
        <time>2015-09-04T03:14:54Z</time>
      </trkpt>
      <trkpt lat="33.80999" lon="77.5437">
        <ele>4390.8</ele>
        <time>2015-09-04T03:15:07Z</time>
      </trkpt>
      <trkpt lat="33.81" lon="77.54379">
        <ele>4391.2</ele>
        <time>2015-09-04T03:15:16Z</time>
      </trkpt>
      <trkpt lat="33.80997" lon="77.54386">
        <ele>4391.8</ele>
        <time>2015-09-04T03:15:30Z</time>
      </trkpt>
      <trkpt lat="33.80991" lon="77.5439">
        <ele>4393</ele>
        <time>2015-09-04T03:15:47Z</time>
      </trkpt>
      <trkpt lat="33.80983" lon="77.54404">
        <ele>4394</ele>
        <time>2015-09-04T03:16:03Z</time>
      </trkpt>
      <trkpt lat="33.80976" lon="77.5442">
        <ele>4395.2</ele>
        <time>2015-09-04T03:16:21Z</time>
      </trkpt>
      <trkpt lat="33.8097" lon="77.54425">
        <ele>4396.2</ele>
        <time>2015-09-04T03:16:33Z</time>
      </trkpt>
      <trkpt lat="33.80969" lon="77.54425">
        <ele>4396.2</ele>
        <time>2015-09-04T03:16:34Z</time>
      </trkpt>
      <trkpt lat="33.80964" lon="77.54437">
        <ele>4397.2</ele>
        <time>2015-09-04T03:16:50Z</time>
      </trkpt>
      <trkpt lat="33.8096" lon="77.54451">
        <ele>4398.2</ele>
        <time>2015-09-04T03:17:07Z</time>
      </trkpt>
      <trkpt lat="33.80958" lon="77.54462">
        <ele>4399.2</ele>
        <time>2015-09-04T03:17:26Z</time>
      </trkpt>
      <trkpt lat="33.80958" lon="77.54468">
        <ele>4400.2</ele>
        <time>2015-09-04T03:17:40Z</time>
      </trkpt>
      <trkpt lat="33.80956" lon="77.54472">
        <ele>4401.4</ele>
        <time>2015-09-04T03:17:53Z</time>
      </trkpt>
      <trkpt lat="33.80956" lon="77.54476">
        <ele>4402.4</ele>
        <time>2015-09-04T03:18:08Z</time>
      </trkpt>
      <trkpt lat="33.80952" lon="77.54486">
        <ele>4403.4</ele>
        <time>2015-09-04T03:18:22Z</time>
      </trkpt>
      <trkpt lat="33.80949" lon="77.54493">
        <ele>4404.4</ele>
        <time>2015-09-04T03:18:36Z</time>
      </trkpt>
      <trkpt lat="33.80948" lon="77.54499">
        <ele>4405.4</ele>
        <time>2015-09-04T03:18:48Z</time>
      </trkpt>
      <trkpt lat="33.80948" lon="77.54507">
        <ele>4406.4</ele>
        <time>2015-09-04T03:19:03Z</time>
      </trkpt>
      <trkpt lat="33.80949" lon="77.54514">
        <ele>4407.4</ele>
        <time>2015-09-04T03:19:17Z</time>
      </trkpt>
      <trkpt lat="33.80951" lon="77.54518">
        <ele>4408.6</ele>
        <time>2015-09-04T03:19:28Z</time>
      </trkpt>
      <trkpt lat="33.80948" lon="77.54524">
        <ele>4409.6</ele>
        <time>2015-09-04T03:19:43Z</time>
      </trkpt>
      <trkpt lat="33.80945" lon="77.54531">
        <ele>4410.6</ele>
        <time>2015-09-04T03:20:00Z</time>
      </trkpt>
      <trkpt lat="33.80945" lon="77.54541">
        <ele>4411.6</ele>
        <time>2015-09-04T03:20:17Z</time>
      </trkpt>
      <trkpt lat="33.8095" lon="77.5455">
        <ele>4412.8</ele>
        <time>2015-09-04T03:20:35Z</time>
      </trkpt>
      <trkpt lat="33.8095" lon="77.54556">
        <ele>4413.8</ele>
        <time>2015-09-04T03:20:45Z</time>
      </trkpt>
      <trkpt lat="33.80951" lon="77.54561">
        <ele>4414.8</ele>
        <time>2015-09-04T03:20:57Z</time>
      </trkpt>
      <trkpt lat="33.80948" lon="77.54571">
        <ele>4415.8</ele>
        <time>2015-09-04T03:21:14Z</time>
      </trkpt>
      <trkpt lat="33.80949" lon="77.54582">
        <ele>4417</ele>
        <time>2015-09-04T03:21:32Z</time>
      </trkpt>
      <trkpt lat="33.8095" lon="77.54583">
        <ele>4417.4</ele>
        <time>2015-09-04T03:21:34Z</time>
      </trkpt>
      <trkpt lat="33.80954" lon="77.54587">
        <ele>4417.6</ele>
        <time>2015-09-04T03:21:43Z</time>
      </trkpt>
      <trkpt lat="33.80953" lon="77.5459">
        <ele>4418</ele>
        <time>2015-09-04T03:21:49Z</time>
      </trkpt>
      <trkpt lat="33.80954" lon="77.54598">
        <ele>4419</ele>
        <time>2015-09-04T03:22:03Z</time>
      </trkpt>
      <trkpt lat="33.80952" lon="77.54609">
        <ele>4420</ele>
        <time>2015-09-04T03:22:16Z</time>
      </trkpt>
      <trkpt lat="33.80948" lon="77.54615">
        <ele>4421.2</ele>
        <time>2015-09-04T03:22:26Z</time>
      </trkpt>
      <trkpt lat="33.80948" lon="77.54621">
        <ele>4422.2</ele>
        <time>2015-09-04T03:22:37Z</time>
      </trkpt>
      <trkpt lat="33.8095" lon="77.54628">
        <ele>4423.2</ele>
        <time>2015-09-04T03:22:48Z</time>
      </trkpt>
      <trkpt lat="33.80951" lon="77.54633">
        <ele>4424.2</ele>
        <time>2015-09-04T03:23:00Z</time>
      </trkpt>
      <trkpt lat="33.80947" lon="77.54639">
        <ele>4425.2</ele>
        <time>2015-09-04T03:23:11Z</time>
      </trkpt>
      <trkpt lat="33.80947" lon="77.54644">
        <ele>4426.4</ele>
        <time>2015-09-04T03:23:21Z</time>
      </trkpt>
      <trkpt lat="33.80946" lon="77.54647">
        <ele>4427.4</ele>
        <time>2015-09-04T03:23:33Z</time>
      </trkpt>
      <trkpt lat="33.80945" lon="77.54655">
        <ele>4428.4</ele>
        <time>2015-09-04T03:23:47Z</time>
      </trkpt>
      <trkpt lat="33.80945" lon="77.54661">
        <ele>4429.4</ele>
        <time>2015-09-04T03:24:00Z</time>
      </trkpt>
      <trkpt lat="33.80943" lon="77.54667">
        <ele>4430.6</ele>
        <time>2015-09-04T03:24:13Z</time>
      </trkpt>
      <trkpt lat="33.80942" lon="77.54673">
        <ele>4431.6</ele>
        <time>2015-09-04T03:24:24Z</time>
      </trkpt>
      <trkpt lat="33.80943" lon="77.54681">
        <ele>4432.6</ele>
        <time>2015-09-04T03:24:37Z</time>
      </trkpt>
      <trkpt lat="33.80943" lon="77.54683">
        <ele>4433.8</ele>
        <time>2015-09-04T03:24:47Z</time>
      </trkpt>
      <trkpt lat="33.80942" lon="77.54689">
        <ele>4434.8</ele>
        <time>2015-09-04T03:24:58Z</time>
      </trkpt>
      <trkpt lat="33.80944" lon="77.54695">
        <ele>4435.8</ele>
        <time>2015-09-04T03:25:12Z</time>
      </trkpt>
      <trkpt lat="33.80943" lon="77.54701">
        <ele>4437</ele>
        <time>2015-09-04T03:25:23Z</time>
      </trkpt>
      <trkpt lat="33.80943" lon="77.54705">
        <ele>4438</ele>
        <time>2015-09-04T03:25:33Z</time>
      </trkpt>
      <trkpt lat="33.80944" lon="77.54707">
        <ele>4438.4</ele>
        <time>2015-09-04T03:25:36Z</time>
      </trkpt>
      <trkpt lat="33.80942" lon="77.54709">
        <ele>4439</ele>
        <time>2015-09-04T03:25:45Z</time>
      </trkpt>
      <trkpt lat="33.80938" lon="77.54717">
        <ele>4440</ele>
        <time>2015-09-04T03:25:56Z</time>
      </trkpt>
      <trkpt lat="33.80937" lon="77.54719">
        <ele>4441</ele>
        <time>2015-09-04T03:26:08Z</time>
      </trkpt>
      <trkpt lat="33.80937" lon="77.54726">
        <ele>4442.2</ele>
        <time>2015-09-04T03:26:24Z</time>
      </trkpt>
      <trkpt lat="33.80935" lon="77.54731">
        <ele>4443.2</ele>
        <time>2015-09-04T03:26:36Z</time>
      </trkpt>
      <trkpt lat="33.80933" lon="77.54739">
        <ele>4444.2</ele>
        <time>2015-09-04T03:26:50Z</time>
      </trkpt>
      <trkpt lat="33.80934" lon="77.54749">
        <ele>4445.2</ele>
        <time>2015-09-04T03:27:05Z</time>
      </trkpt>
      <trkpt lat="33.80932" lon="77.54753">
        <ele>4446.4</ele>
        <time>2015-09-04T03:27:17Z</time>
      </trkpt>
      <trkpt lat="33.80931" lon="77.54762">
        <ele>4447.4</ele>
        <time>2015-09-04T03:27:29Z</time>
      </trkpt>
      <trkpt lat="33.80929" lon="77.54771">
        <ele>4448.6</ele>
        <time>2015-09-04T03:27:41Z</time>
      </trkpt>
      <trkpt lat="33.80928" lon="77.54781">
        <ele>4449.6</ele>
        <time>2015-09-04T03:27:56Z</time>
      </trkpt>
      <trkpt lat="33.80928" lon="77.54784">
        <ele>4450.2</ele>
        <time>2015-09-04T03:28:03Z</time>
      </trkpt>
      <trkpt lat="33.80928" lon="77.54787">
        <ele>4450.6</ele>
        <time>2015-09-04T03:28:06Z</time>
      </trkpt>
      <trkpt lat="33.80923" lon="77.54796">
        <ele>4451.8</ele>
        <time>2015-09-04T03:28:23Z</time>
      </trkpt>
      <trkpt lat="33.80922" lon="77.54803">
        <ele>4452.8</ele>
        <time>2015-09-04T03:28:33Z</time>
      </trkpt>
      <trkpt lat="33.80922" lon="77.54811">
        <ele>4453.8</ele>
        <time>2015-09-04T03:28:46Z</time>
      </trkpt>
      <trkpt lat="33.80922" lon="77.54815">
        <ele>4454.8</ele>
        <time>2015-09-04T03:28:55Z</time>
      </trkpt>
      <trkpt lat="33.8092" lon="77.54823">
        <ele>4455.4</ele>
        <time>2015-09-04T03:29:04Z</time>
      </trkpt>
      <trkpt lat="33.80919" lon="77.54826">
        <ele>4455.4</ele>
        <time>2015-09-04T03:29:08Z</time>
      </trkpt>
      <trkpt lat="33.80919" lon="77.54831">
        <ele>4455.6</ele>
        <time>2015-09-04T03:29:13Z</time>
      </trkpt>
      <trkpt lat="33.80918" lon="77.54833">
        <ele>4455.6</ele>
        <time>2015-09-04T03:29:15Z</time>
      </trkpt>
      <trkpt lat="33.80921" lon="77.54839">
        <ele>4456</ele>
        <time>2015-09-04T03:29:26Z</time>
      </trkpt>
      <trkpt lat="33.80924" lon="77.54843">
        <ele>4456</ele>
        <time>2015-09-04T03:29:32Z</time>
      </trkpt>
      <trkpt lat="33.80927" lon="77.54846">
        <ele>4457</ele>
        <time>2015-09-04T03:29:55Z</time>
      </trkpt>
      <trkpt lat="33.80927" lon="77.54854">
        <ele>4457.8</ele>
        <time>2015-09-04T03:31:05Z</time>
      </trkpt>
      <trkpt lat="33.80926" lon="77.54856">
        <ele>4458</ele>
        <time>2015-09-04T03:31:07Z</time>
      </trkpt>
      <trkpt lat="33.80924" lon="77.54862">
        <ele>4459</ele>
        <time>2015-09-04T03:31:17Z</time>
      </trkpt>
      <trkpt lat="33.80929" lon="77.54865">
        <ele>4459.6</ele>
        <time>2015-09-04T03:31:23Z</time>
      </trkpt>
      <trkpt lat="33.80931" lon="77.54866">
        <ele>4460.2</ele>
        <time>2015-09-04T03:31:27Z</time>
      </trkpt>
      <trkpt lat="33.80937" lon="77.54869">
        <ele>4461.4</ele>
        <time>2015-09-04T03:31:36Z</time>
      </trkpt>
      <trkpt lat="33.80941" lon="77.54869">
        <ele>4462.4</ele>
        <time>2015-09-04T03:31:43Z</time>
      </trkpt>
      <trkpt lat="33.80945" lon="77.54873">
        <ele>4463.6</ele>
        <time>2015-09-04T03:31:57Z</time>
      </trkpt>
      <trkpt lat="33.80942" lon="77.54881">
        <ele>4464.6</ele>
        <time>2015-09-04T03:32:10Z</time>
      </trkpt>
      <trkpt lat="33.80942" lon="77.54884">
        <ele>4465.8</ele>
        <time>2015-09-04T03:32:17Z</time>
      </trkpt>
      <trkpt lat="33.80948" lon="77.54883">
        <ele>4466.2</ele>
        <time>2015-09-04T03:32:26Z</time>
      </trkpt>
      <trkpt lat="33.80948" lon="77.54884">
        <ele>4466.2</ele>
        <time>2015-09-04T03:32:28Z</time>
      </trkpt>
      <trkpt lat="33.80944" lon="77.54885">
        <ele>4466.8</ele>
        <time>2015-09-04T03:33:05Z</time>
      </trkpt>
      <trkpt lat="33.80945" lon="77.54885">
        <ele>4466.8</ele>
        <time>2015-09-04T03:34:17Z</time>
      </trkpt>
      <trkpt lat="33.80946" lon="77.54883">
        <ele>4467</ele>
        <time>2015-09-04T03:35:51Z</time>
      </trkpt>
      <trkpt lat="33.80943" lon="77.5489">
        <ele>4467.8</ele>
        <time>2015-09-04T03:36:04Z</time>
      </trkpt>
      <trkpt lat="33.80943" lon="77.54895">
        <ele>4468.8</ele>
        <time>2015-09-04T03:36:14Z</time>
      </trkpt>
      <trkpt lat="33.8094" lon="77.54902">
        <ele>4469.8</ele>
        <time>2015-09-04T03:36:25Z</time>
      </trkpt>
      <trkpt lat="33.80939" lon="77.5491">
        <ele>4470.8</ele>
        <time>2015-09-04T03:36:38Z</time>
      </trkpt>
      <trkpt lat="33.80941" lon="77.54918">
        <ele>4472</ele>
        <time>2015-09-04T03:36:58Z</time>
      </trkpt>
      <trkpt lat="33.80943" lon="77.54928">
        <ele>4473</ele>
        <time>2015-09-04T03:37:12Z</time>
      </trkpt>
      <trkpt lat="33.80943" lon="77.5493">
        <ele>4473.2</ele>
        <time>2015-09-04T03:37:14Z</time>
      </trkpt>
      <trkpt lat="33.8094" lon="77.54931">
        <ele>4474</ele>
        <time>2015-09-04T03:37:20Z</time>
      </trkpt>
      <trkpt lat="33.80937" lon="77.54937">
        <ele>4475</ele>
        <time>2015-09-04T03:37:30Z</time>
      </trkpt>
      <trkpt lat="33.80938" lon="77.54941">
        <ele>4476</ele>
        <time>2015-09-04T03:37:42Z</time>
      </trkpt>
      <trkpt lat="33.80936" lon="77.54945">
        <ele>4477.2</ele>
        <time>2015-09-04T03:37:52Z</time>
      </trkpt>
      <trkpt lat="33.80937" lon="77.54953">
        <ele>4478.2</ele>
        <time>2015-09-04T03:38:06Z</time>
      </trkpt>
      <trkpt lat="33.80933" lon="77.54959">
        <ele>4479.2</ele>
        <time>2015-09-04T03:38:20Z</time>
      </trkpt>
      <trkpt lat="33.80936" lon="77.54965">
        <ele>4480.4</ele>
        <time>2015-09-04T03:38:33Z</time>
      </trkpt>
      <trkpt lat="33.80943" lon="77.54969">
        <ele>4481.4</ele>
        <time>2015-09-04T03:38:46Z</time>
      </trkpt>
      <trkpt lat="33.80945" lon="77.54975">
        <ele>4482.6</ele>
        <time>2015-09-04T03:38:59Z</time>
      </trkpt>
      <trkpt lat="33.80946" lon="77.5498">
        <ele>4483.6</ele>
        <time>2015-09-04T03:39:08Z</time>
      </trkpt>
      <trkpt lat="33.80944" lon="77.54989">
        <ele>4484.6</ele>
        <time>2015-09-04T03:39:28Z</time>
      </trkpt>
      <trkpt lat="33.80943" lon="77.55">
        <ele>4485.8</ele>
        <time>2015-09-04T03:39:41Z</time>
      </trkpt>
      <trkpt lat="33.80943" lon="77.55009">
        <ele>4486.8</ele>
        <time>2015-09-04T03:39:57Z</time>
      </trkpt>
      <trkpt lat="33.8094" lon="77.55012">
        <ele>4487.8</ele>
        <time>2015-09-04T03:40:08Z</time>
      </trkpt>
      <trkpt lat="33.80942" lon="77.55017">
        <ele>4488.8</ele>
        <time>2015-09-04T03:40:17Z</time>
      </trkpt>
      <trkpt lat="33.80945" lon="77.55026">
        <ele>4490</ele>
        <time>2015-09-04T03:40:34Z</time>
      </trkpt>
      <trkpt lat="33.80946" lon="77.55029">
        <ele>4490.6</ele>
        <time>2015-09-04T03:40:43Z</time>
      </trkpt>
      <trkpt lat="33.80945" lon="77.55031">
        <ele>4491</ele>
        <time>2015-09-04T03:40:47Z</time>
      </trkpt>
      <trkpt lat="33.80949" lon="77.55038">
        <ele>4492</ele>
        <time>2015-09-04T03:41:06Z</time>
      </trkpt>
      <trkpt lat="33.80949" lon="77.55045">
        <ele>4493</ele>
        <time>2015-09-04T03:41:14Z</time>
      </trkpt>
      <trkpt lat="33.80947" lon="77.55055">
        <ele>4494</ele>
        <time>2015-09-04T03:41:27Z</time>
      </trkpt>
      <trkpt lat="33.80949" lon="77.55058">
        <ele>4495.2</ele>
        <time>2015-09-04T03:41:35Z</time>
      </trkpt>
      <trkpt lat="33.80951" lon="77.55064">
        <ele>4496.2</ele>
        <time>2015-09-04T03:41:48Z</time>
      </trkpt>
      <trkpt lat="33.80954" lon="77.55067">
        <ele>4497.2</ele>
        <time>2015-09-04T03:41:57Z</time>
      </trkpt>
      <trkpt lat="33.80953" lon="77.55073">
        <ele>4498.4</ele>
        <time>2015-09-04T03:42:05Z</time>
      </trkpt>
      <trkpt lat="33.80952" lon="77.55078">
        <ele>4499.4</ele>
        <time>2015-09-04T03:42:16Z</time>
      </trkpt>
      <trkpt lat="33.80952" lon="77.55084">
        <ele>4500.4</ele>
        <time>2015-09-04T03:42:28Z</time>
      </trkpt>
      <trkpt lat="33.80954" lon="77.55092">
        <ele>4501.4</ele>
        <time>2015-09-04T03:42:40Z</time>
      </trkpt>
      <trkpt lat="33.80952" lon="77.551">
        <ele>4502.4</ele>
        <time>2015-09-04T03:42:56Z</time>
      </trkpt>
      <trkpt lat="33.80955" lon="77.55105">
        <ele>4503.6</ele>
        <time>2015-09-04T03:43:07Z</time>
      </trkpt>
      <trkpt lat="33.80956" lon="77.55108">
        <ele>4504</ele>
        <time>2015-09-04T03:43:16Z</time>
      </trkpt>
      <trkpt lat="33.80957" lon="77.55112">
        <ele>4504.6</ele>
        <time>2015-09-04T03:43:23Z</time>
      </trkpt>
      <trkpt lat="33.80957" lon="77.55115">
        <ele>4505.6</ele>
        <time>2015-09-04T03:43:28Z</time>
      </trkpt>
      <trkpt lat="33.80955" lon="77.5512">
        <ele>4506.8</ele>
        <time>2015-09-04T03:43:38Z</time>
      </trkpt>
      <trkpt lat="33.80955" lon="77.55124">
        <ele>4507.8</ele>
        <time>2015-09-04T03:43:51Z</time>
      </trkpt>
      <trkpt lat="33.80962" lon="77.55128">
        <ele>4508.8</ele>
        <time>2015-09-04T03:44:03Z</time>
      </trkpt>
      <trkpt lat="33.80958" lon="77.55133">
        <ele>4509.2</ele>
        <time>2015-09-04T03:44:08Z</time>
      </trkpt>
      <trkpt lat="33.80956" lon="77.55135">
        <ele>4509.8</ele>
        <time>2015-09-04T03:44:13Z</time>
      </trkpt>
      <trkpt lat="33.80962" lon="77.55139">
        <ele>4511</ele>
        <time>2015-09-04T03:44:23Z</time>
      </trkpt>
      <trkpt lat="33.80963" lon="77.55145">
        <ele>4512</ele>
        <time>2015-09-04T03:44:36Z</time>
      </trkpt>
      <trkpt lat="33.80962" lon="77.55153">
        <ele>4513</ele>
        <time>2015-09-04T03:44:47Z</time>
      </trkpt>
      <trkpt lat="33.80961" lon="77.55156">
        <ele>4514</ele>
        <time>2015-09-04T03:44:56Z</time>
      </trkpt>
      <trkpt lat="33.8096" lon="77.55163">
        <ele>4515</ele>
        <time>2015-09-04T03:45:10Z</time>
      </trkpt>
      <trkpt lat="33.80958" lon="77.55171">
        <ele>4516</ele>
        <time>2015-09-04T03:45:20Z</time>
      </trkpt>
      <trkpt lat="33.80958" lon="77.55177">
        <ele>4517</ele>
        <time>2015-09-04T03:45:32Z</time>
      </trkpt>
      <trkpt lat="33.80958" lon="77.55184">
        <ele>4518</ele>
        <time>2015-09-04T03:45:44Z</time>
      </trkpt>
      <trkpt lat="33.80959" lon="77.5519">
        <ele>4519.2</ele>
        <time>2015-09-04T03:45:57Z</time>
      </trkpt>
      <trkpt lat="33.80958" lon="77.55196">
        <ele>4520.2</ele>
        <time>2015-09-04T03:46:08Z</time>
      </trkpt>
      <trkpt lat="33.8096" lon="77.552">
        <ele>4521.2</ele>
        <time>2015-09-04T03:46:20Z</time>
      </trkpt>
      <trkpt lat="33.80957" lon="77.55207">
        <ele>4522.4</ele>
        <time>2015-09-04T03:46:33Z</time>
      </trkpt>
      <trkpt lat="33.80957" lon="77.55216">
        <ele>4523.4</ele>
        <time>2015-09-04T03:46:51Z</time>
      </trkpt>
      <trkpt lat="33.80953" lon="77.55227">
        <ele>4524.4</ele>
        <time>2015-09-04T03:47:03Z</time>
      </trkpt>
      <trkpt lat="33.80953" lon="77.55228">
        <ele>4524.4</ele>
        <time>2015-09-04T03:47:05Z</time>
      </trkpt>
      <trkpt lat="33.80951" lon="77.55236">
        <ele>4525.4</ele>
        <time>2015-09-04T03:47:18Z</time>
      </trkpt>
      <trkpt lat="33.80952" lon="77.55244">
        <ele>4526.4</ele>
        <time>2015-09-04T03:47:30Z</time>
      </trkpt>
      <trkpt lat="33.80953" lon="77.55248">
        <ele>4527.6</ele>
        <time>2015-09-04T03:47:40Z</time>
      </trkpt>
      <trkpt lat="33.80951" lon="77.55254">
        <ele>4528.6</ele>
        <time>2015-09-04T03:47:54Z</time>
      </trkpt>
      <trkpt lat="33.80949" lon="77.5526">
        <ele>4529.6</ele>
        <time>2015-09-04T03:48:04Z</time>
      </trkpt>
      <trkpt lat="33.80948" lon="77.55269">
        <ele>4530.6</ele>
        <time>2015-09-04T03:48:17Z</time>
      </trkpt>
      <trkpt lat="33.80951" lon="77.55272">
        <ele>4531.8</ele>
        <time>2015-09-04T03:48:28Z</time>
      </trkpt>
      <trkpt lat="33.80954" lon="77.55273">
        <ele>4532.8</ele>
        <time>2015-09-04T03:48:38Z</time>
      </trkpt>
      <trkpt lat="33.80956" lon="77.55271">
        <ele>4533.8</ele>
        <time>2015-09-04T03:48:50Z</time>
      </trkpt>
      <trkpt lat="33.80959" lon="77.55265">
        <ele>4534.8</ele>
        <time>2015-09-04T03:49:00Z</time>
      </trkpt>
      <trkpt lat="33.80963" lon="77.5526">
        <ele>4536</ele>
        <time>2015-09-04T03:49:11Z</time>
      </trkpt>
      <trkpt lat="33.80966" lon="77.55256">
        <ele>4537</ele>
        <time>2015-09-04T03:49:23Z</time>
      </trkpt>
      <trkpt lat="33.80969" lon="77.55253">
        <ele>4538</ele>
        <time>2015-09-04T03:49:34Z</time>
      </trkpt>
      <trkpt lat="33.80973" lon="77.55251">
        <ele>4539</ele>
        <time>2015-09-04T03:49:44Z</time>
      </trkpt>
      <trkpt lat="33.80972" lon="77.55245">
        <ele>4540.2</ele>
        <time>2015-09-04T03:49:54Z</time>
      </trkpt>
      <trkpt lat="33.80979" lon="77.55242">
        <ele>4541.2</ele>
        <time>2015-09-04T03:50:07Z</time>
      </trkpt>
      <trkpt lat="33.80985" lon="77.55241">
        <ele>4542.2</ele>
        <time>2015-09-04T03:50:18Z</time>
      </trkpt>
      <trkpt lat="33.80987" lon="77.55238">
        <ele>4543.2</ele>
        <time>2015-09-04T03:50:28Z</time>
      </trkpt>
      <trkpt lat="33.80989" lon="77.55232">
        <ele>4544.2</ele>
        <time>2015-09-04T03:50:37Z</time>
      </trkpt>
      <trkpt lat="33.80991" lon="77.55224">
        <ele>4545.2</ele>
        <time>2015-09-04T03:50:47Z</time>
      </trkpt>
      <trkpt lat="33.80996" lon="77.5522">
        <ele>4546.2</ele>
        <time>2015-09-04T03:50:59Z</time>
      </trkpt>
      <trkpt lat="33.81002" lon="77.55219">
        <ele>4547.4</ele>
        <time>2015-09-04T03:51:11Z</time>
      </trkpt>
      <trkpt lat="33.81008" lon="77.55219">
        <ele>4548.4</ele>
        <time>2015-09-04T03:51:22Z</time>
      </trkpt>
      <trkpt lat="33.81012" lon="77.55218">
        <ele>4549.4</ele>
        <time>2015-09-04T03:51:34Z</time>
      </trkpt>
      <trkpt lat="33.81017" lon="77.55222">
        <ele>4550.6</ele>
        <time>2015-09-04T03:51:45Z</time>
      </trkpt>
      <trkpt lat="33.8102" lon="77.55213">
        <ele>4551.8</ele>
        <time>2015-09-04T03:52:00Z</time>
      </trkpt>
      <trkpt lat="33.81018" lon="77.55212">
        <ele>4552.4</ele>
        <time>2015-09-04T03:52:13Z</time>
      </trkpt>
      <trkpt lat="33.81019" lon="77.55215">
        <ele>4552.8</ele>
        <time>2015-09-04T03:52:52Z</time>
      </trkpt>
      <trkpt lat="33.81016" lon="77.55218">
        <ele>4553.2</ele>
        <time>2015-09-04T03:53:26Z</time>
      </trkpt>
      <trkpt lat="33.81015" lon="77.55219">
        <ele>4552.6</ele>
        <time>2015-09-04T03:53:28Z</time>
      </trkpt>
      <trkpt lat="33.81015" lon="77.55217">
        <ele>4552.2</ele>
        <time>2015-09-04T03:53:53Z</time>
      </trkpt>
      <trkpt lat="33.81021" lon="77.5521">
        <ele>4553.2</ele>
        <time>2015-09-04T03:54:14Z</time>
      </trkpt>
      <trkpt lat="33.81022" lon="77.5521">
        <ele>4553.4</ele>
        <time>2015-09-04T03:54:16Z</time>
      </trkpt>
      <trkpt lat="33.81023" lon="77.55213">
        <ele>4553.4</ele>
        <time>2015-09-04T03:54:20Z</time>
      </trkpt>
      <trkpt lat="33.81023" lon="77.55214">
        <ele>4553.2</ele>
        <time>2015-09-04T03:54:22Z</time>
      </trkpt>
      <trkpt lat="33.81022" lon="77.55214">
        <ele>4553.8</ele>
        <time>2015-09-04T03:54:40Z</time>
      </trkpt>
      <trkpt lat="33.81017" lon="77.55217">
        <ele>4553</ele>
        <time>2015-09-04T03:55:03Z</time>
      </trkpt>
      <trkpt lat="33.81018" lon="77.55217">
        <ele>4552.8</ele>
        <time>2015-09-04T03:55:57Z</time>
      </trkpt>
      <trkpt lat="33.81016" lon="77.55222">
        <ele>4554</ele>
        <time>2015-09-04T03:56:11Z</time>
      </trkpt>
      <trkpt lat="33.81023" lon="77.55219">
        <ele>4554.4</ele>
        <time>2015-09-04T03:56:46Z</time>
      </trkpt>
      <trkpt lat="33.81023" lon="77.55217">
        <ele>4554.4</ele>
        <time>2015-09-04T03:56:48Z</time>
      </trkpt>
      <trkpt lat="33.81022" lon="77.55217">
        <ele>4555</ele>
        <time>2015-09-04T03:57:12Z</time>
      </trkpt>
      <trkpt lat="33.81016" lon="77.55215">
        <ele>4554</ele>
        <time>2015-09-04T03:57:51Z</time>
      </trkpt>
      <trkpt lat="33.81016" lon="77.5522">
        <ele>4554.8</ele>
        <time>2015-09-04T03:58:32Z</time>
      </trkpt>
      <trkpt lat="33.81017" lon="77.5522">
        <ele>4555</ele>
        <time>2015-09-04T03:58:38Z</time>
      </trkpt>
      <trkpt lat="33.81019" lon="77.55217">
        <ele>4555.6</ele>
        <time>2015-09-04T03:59:46Z</time>
      </trkpt>
      <trkpt lat="33.81017" lon="77.55234">
        <ele>4556</ele>
        <time>2015-09-04T04:00:05Z</time>
      </trkpt>
      <trkpt lat="33.8102" lon="77.5524">
        <ele>4556.6</ele>
        <time>2015-09-04T04:00:13Z</time>
      </trkpt>
      <trkpt lat="33.81019" lon="77.55241">
        <ele>4557.2</ele>
        <time>2015-09-04T04:00:23Z</time>
      </trkpt>
      <trkpt lat="33.81014" lon="77.55248">
        <ele>4558.2</ele>
        <time>2015-09-04T04:00:34Z</time>
      </trkpt>
      <trkpt lat="33.81013" lon="77.55256">
        <ele>4559.2</ele>
        <time>2015-09-04T04:00:45Z</time>
      </trkpt>
      <trkpt lat="33.81013" lon="77.55257">
        <ele>4559.2</ele>
        <time>2015-09-04T04:00:46Z</time>
      </trkpt>
      <trkpt lat="33.81012" lon="77.55263">
        <ele>4560.4</ele>
        <time>2015-09-04T04:00:57Z</time>
      </trkpt>
      <trkpt lat="33.81011" lon="77.55267">
        <ele>4561.4</ele>
        <time>2015-09-04T04:01:09Z</time>
      </trkpt>
      <trkpt lat="33.81017" lon="77.55273">
        <ele>4562.4</ele>
        <time>2015-09-04T04:01:25Z</time>
      </trkpt>
      <trkpt lat="33.81013" lon="77.55278">
        <ele>4563.4</ele>
        <time>2015-09-04T04:01:38Z</time>
      </trkpt>
      <trkpt lat="33.81012" lon="77.55283">
        <ele>4564.6</ele>
        <time>2015-09-04T04:01:52Z</time>
      </trkpt>
      <trkpt lat="33.81008" lon="77.55289">
        <ele>4565.6</ele>
        <time>2015-09-04T04:02:05Z</time>
      </trkpt>
      <trkpt lat="33.81008" lon="77.55296">
        <ele>4566.8</ele>
        <time>2015-09-04T04:02:19Z</time>
      </trkpt>
      <trkpt lat="33.81001" lon="77.55307">
        <ele>4567.8</ele>
        <time>2015-09-04T04:02:33Z</time>
      </trkpt>
      <trkpt lat="33.80999" lon="77.55311">
        <ele>4569</ele>
        <time>2015-09-04T04:02:44Z</time>
      </trkpt>
      <trkpt lat="33.81005" lon="77.55316">
        <ele>4570</ele>
        <time>2015-09-04T04:02:56Z</time>
      </trkpt>
      <trkpt lat="33.81005" lon="77.55324">
        <ele>4571</ele>
        <time>2015-09-04T04:03:10Z</time>
      </trkpt>
      <trkpt lat="33.80999" lon="77.55341">
        <ele>4571.8</ele>
        <time>2015-09-04T04:03:27Z</time>
      </trkpt>
      <trkpt lat="33.80997" lon="77.55344">
        <ele>4572</ele>
        <time>2015-09-04T04:03:30Z</time>
      </trkpt>
      <trkpt lat="33.80996" lon="77.55348">
        <ele>4572.4</ele>
        <time>2015-09-04T04:03:36Z</time>
      </trkpt>
      <trkpt lat="33.80996" lon="77.5535">
        <ele>4572.6</ele>
        <time>2015-09-04T04:03:39Z</time>
      </trkpt>
      <trkpt lat="33.80995" lon="77.55362">
        <ele>4573</ele>
        <time>2015-09-04T04:03:54Z</time>
      </trkpt>
      <trkpt lat="33.80993" lon="77.55369">
        <ele>4574</ele>
        <time>2015-09-04T04:04:02Z</time>
      </trkpt>
      <trkpt lat="33.80992" lon="77.55368">
        <ele>4574.2</ele>
        <time>2015-09-04T04:04:10Z</time>
      </trkpt>
      <trkpt lat="33.80987" lon="77.55379">
        <ele>4575.2</ele>
        <time>2015-09-04T04:04:22Z</time>
      </trkpt>
      <trkpt lat="33.80988" lon="77.5539">
        <ele>4576.2</ele>
        <time>2015-09-04T04:04:38Z</time>
      </trkpt>
      <trkpt lat="33.80987" lon="77.55391">
        <ele>4576.2</ele>
        <time>2015-09-04T04:04:39Z</time>
      </trkpt>
      <trkpt lat="33.80982" lon="77.55396">
        <ele>4577.2</ele>
        <time>2015-09-04T04:04:54Z</time>
      </trkpt>
      <trkpt lat="33.80979" lon="77.554">
        <ele>4578.2</ele>
        <time>2015-09-04T04:05:06Z</time>
      </trkpt>
      <trkpt lat="33.80977" lon="77.55411">
        <ele>4579.2</ele>
        <time>2015-09-04T04:05:16Z</time>
      </trkpt>
      <trkpt lat="33.80977" lon="77.55413">
        <ele>4579.6</ele>
        <time>2015-09-04T04:05:20Z</time>
      </trkpt>
      <trkpt lat="33.80978" lon="77.55415">
        <ele>4580.4</ele>
        <time>2015-09-04T04:05:27Z</time>
      </trkpt>
      <trkpt lat="33.80983" lon="77.55418">
        <ele>4581.4</ele>
        <time>2015-09-04T04:05:37Z</time>
      </trkpt>
      <trkpt lat="33.80984" lon="77.55424">
        <ele>4582.4</ele>
        <time>2015-09-04T04:05:46Z</time>
      </trkpt>
      <trkpt lat="33.80981" lon="77.55429">
        <ele>4583.4</ele>
        <time>2015-09-04T04:05:56Z</time>
      </trkpt>
      <trkpt lat="33.80979" lon="77.55436">
        <ele>4584.6</ele>
        <time>2015-09-04T04:06:11Z</time>
      </trkpt>
      <trkpt lat="33.80978" lon="77.55443">
        <ele>4585.6</ele>
        <time>2015-09-04T04:06:22Z</time>
      </trkpt>
      <trkpt lat="33.8098" lon="77.55447">
        <ele>4586.6</ele>
        <time>2015-09-04T04:06:32Z</time>
      </trkpt>
      <trkpt lat="33.80978" lon="77.55455">
        <ele>4587.6</ele>
        <time>2015-09-04T04:06:48Z</time>
      </trkpt>
      <trkpt lat="33.80975" lon="77.55454">
        <ele>4588.6</ele>
        <time>2015-09-04T04:06:58Z</time>
      </trkpt>
      <trkpt lat="33.80971" lon="77.55453">
        <ele>4589.8</ele>
        <time>2015-09-04T04:07:09Z</time>
      </trkpt>
      <trkpt lat="33.80968" lon="77.55457">
        <ele>4590.8</ele>
        <time>2015-09-04T04:07:19Z</time>
      </trkpt>
      <trkpt lat="33.80964" lon="77.55461">
        <ele>4591.8</ele>
        <time>2015-09-04T04:07:32Z</time>
      </trkpt>
      <trkpt lat="33.80957" lon="77.55464">
        <ele>4593</ele>
        <time>2015-09-04T04:07:45Z</time>
      </trkpt>
      <trkpt lat="33.80952" lon="77.5547">
        <ele>4594</ele>
        <time>2015-09-04T04:07:58Z</time>
      </trkpt>
      <trkpt lat="33.8095" lon="77.55471">
        <ele>4595</ele>
        <time>2015-09-04T04:08:09Z</time>
      </trkpt>
      <trkpt lat="33.80946" lon="77.55476">
        <ele>4595.8</ele>
        <time>2015-09-04T04:08:21Z</time>
      </trkpt>
      <trkpt lat="33.80945" lon="77.55475">
        <ele>4596.2</ele>
        <time>2015-09-04T04:08:25Z</time>
      </trkpt>
      <trkpt lat="33.80942" lon="77.5548">
        <ele>4597.2</ele>
        <time>2015-09-04T04:08:35Z</time>
      </trkpt>
      <trkpt lat="33.80938" lon="77.55487">
        <ele>4598.2</ele>
        <time>2015-09-04T04:08:48Z</time>
      </trkpt>
      <trkpt lat="33.80933" lon="77.55493">
        <ele>4599.4</ele>
        <time>2015-09-04T04:09:02Z</time>
      </trkpt>
      <trkpt lat="33.80933" lon="77.55496">
        <ele>4600.4</ele>
        <time>2015-09-04T04:09:10Z</time>
      </trkpt>
      <trkpt lat="33.80933" lon="77.555">
        <ele>4601.4</ele>
        <time>2015-09-04T04:09:20Z</time>
      </trkpt>
      <trkpt lat="33.80929" lon="77.55505">
        <ele>4602.6</ele>
        <time>2015-09-04T04:09:29Z</time>
      </trkpt>
      <trkpt lat="33.80935" lon="77.55509">
        <ele>4603.6</ele>
        <time>2015-09-04T04:09:40Z</time>
      </trkpt>
      <trkpt lat="33.80935" lon="77.55516">
        <ele>4604.8</ele>
        <time>2015-09-04T04:09:52Z</time>
      </trkpt>
      <trkpt lat="33.80941" lon="77.5552">
        <ele>4605.4</ele>
        <time>2015-09-04T04:09:59Z</time>
      </trkpt>
      <trkpt lat="33.80939" lon="77.55523">
        <ele>4605.2</ele>
        <time>2015-09-04T04:10:01Z</time>
      </trkpt>
      <trkpt lat="33.8094" lon="77.55529">
        <ele>4605.2</ele>
        <time>2015-09-04T04:10:08Z</time>
      </trkpt>
      <trkpt lat="33.80936" lon="77.55531">
        <ele>4605.8</ele>
        <time>2015-09-04T04:10:16Z</time>
      </trkpt>
      <trkpt lat="33.80935" lon="77.55538">
        <ele>4606.8</ele>
        <time>2015-09-04T04:10:28Z</time>
      </trkpt>
      <trkpt lat="33.80928" lon="77.55546">
        <ele>4608</ele>
        <time>2015-09-04T04:10:45Z</time>
      </trkpt>
      <trkpt lat="33.80926" lon="77.5556">
        <ele>4609</ele>
        <time>2015-09-04T04:11:00Z</time>
      </trkpt>
      <trkpt lat="33.80924" lon="77.55566">
        <ele>4610</ele>
        <time>2015-09-04T04:11:11Z</time>
      </trkpt>
      <trkpt lat="33.80919" lon="77.55577">
        <ele>4611</ele>
        <time>2015-09-04T04:11:27Z</time>
      </trkpt>
      <trkpt lat="33.80918" lon="77.5559">
        <ele>4612</ele>
        <time>2015-09-04T04:11:45Z</time>
      </trkpt>
      <trkpt lat="33.80918" lon="77.55601">
        <ele>4613.2</ele>
        <time>2015-09-04T04:12:02Z</time>
      </trkpt>
      <trkpt lat="33.80922" lon="77.55612">
        <ele>4614.4</ele>
        <time>2015-09-04T04:12:18Z</time>
      </trkpt>
      <trkpt lat="33.80924" lon="77.55623">
        <ele>4615.4</ele>
        <time>2015-09-04T04:12:34Z</time>
      </trkpt>
      <trkpt lat="33.80926" lon="77.55633">
        <ele>4616</ele>
        <time>2015-09-04T04:12:45Z</time>
      </trkpt>
      <trkpt lat="33.80925" lon="77.55634">
        <ele>4616.4</ele>
        <time>2015-09-04T04:12:48Z</time>
      </trkpt>
      <trkpt lat="33.80925" lon="77.55641">
        <ele>4617.6</ele>
        <time>2015-09-04T04:12:59Z</time>
      </trkpt>
      <trkpt lat="33.80922" lon="77.55649">
        <ele>4618.6</ele>
        <time>2015-09-04T04:13:13Z</time>
      </trkpt>
      <trkpt lat="33.80922" lon="77.55655">
        <ele>4619.6</ele>
        <time>2015-09-04T04:13:22Z</time>
      </trkpt>
      <trkpt lat="33.80924" lon="77.55664">
        <ele>4620.6</ele>
        <time>2015-09-04T04:13:35Z</time>
      </trkpt>
      <trkpt lat="33.80922" lon="77.55675">
        <ele>4621.6</ele>
        <time>2015-09-04T04:13:52Z</time>
      </trkpt>
      <trkpt lat="33.80921" lon="77.55681">
        <ele>4622.8</ele>
        <time>2015-09-04T04:14:04Z</time>
      </trkpt>
      <trkpt lat="33.80918" lon="77.55686">
        <ele>4623.8</ele>
        <time>2015-09-04T04:14:16Z</time>
      </trkpt>
      <trkpt lat="33.80918" lon="77.55695">
        <ele>4624.8</ele>
        <time>2015-09-04T04:14:28Z</time>
      </trkpt>
      <trkpt lat="33.80913" lon="77.55702">
        <ele>4625.8</ele>
        <time>2015-09-04T04:14:44Z</time>
      </trkpt>
      <trkpt lat="33.80906" lon="77.55712">
        <ele>4627</ele>
        <time>2015-09-04T04:14:59Z</time>
      </trkpt>
      <trkpt lat="33.80907" lon="77.55724">
        <ele>4628</ele>
        <time>2015-09-04T04:15:15Z</time>
      </trkpt>
      <trkpt lat="33.80903" lon="77.5573">
        <ele>4629</ele>
        <time>2015-09-04T04:15:27Z</time>
      </trkpt>
      <trkpt lat="33.80897" lon="77.55733">
        <ele>4630</ele>
        <time>2015-09-04T04:15:42Z</time>
      </trkpt>
      <trkpt lat="33.80896" lon="77.55738">
        <ele>4631.2</ele>
        <time>2015-09-04T04:15:53Z</time>
      </trkpt>
      <trkpt lat="33.80891" lon="77.55743">
        <ele>4632.2</ele>
        <time>2015-09-04T04:16:05Z</time>
      </trkpt>
      <trkpt lat="33.80885" lon="77.55743">
        <ele>4633.4</ele>
        <time>2015-09-04T04:16:19Z</time>
      </trkpt>
      <trkpt lat="33.80878" lon="77.55749">
        <ele>4634.4</ele>
        <time>2015-09-04T04:16:33Z</time>
      </trkpt>
      <trkpt lat="33.80875" lon="77.55752">
        <ele>4635.4</ele>
        <time>2015-09-04T04:16:43Z</time>
      </trkpt>
      <trkpt lat="33.8087" lon="77.55756">
        <ele>4636.4</ele>
        <time>2015-09-04T04:16:53Z</time>
      </trkpt>
      <trkpt lat="33.80867" lon="77.5576">
        <ele>4637.6</ele>
        <time>2015-09-04T04:17:03Z</time>
      </trkpt>
      <trkpt lat="33.80862" lon="77.55764">
        <ele>4638.6</ele>
        <time>2015-09-04T04:17:16Z</time>
      </trkpt>
      <trkpt lat="33.80858" lon="77.55764">
        <ele>4639.6</ele>
        <time>2015-09-04T04:17:25Z</time>
      </trkpt>
      <trkpt lat="33.80853" lon="77.55766">
        <ele>4640.4</ele>
        <time>2015-09-04T04:17:37Z</time>
      </trkpt>
      <trkpt lat="33.80849" lon="77.5577">
        <ele>4640.8</ele>
        <time>2015-09-04T04:17:44Z</time>
      </trkpt>
      <trkpt lat="33.80846" lon="77.55769">
        <ele>4641.8</ele>
        <time>2015-09-04T04:17:57Z</time>
      </trkpt>
      <trkpt lat="33.80843" lon="77.55771">
        <ele>4642.8</ele>
        <time>2015-09-04T04:18:07Z</time>
      </trkpt>
      <trkpt lat="33.80838" lon="77.55774">
        <ele>4643.8</ele>
        <time>2015-09-04T04:18:18Z</time>
      </trkpt>
      <trkpt lat="33.80832" lon="77.5578">
        <ele>4644.8</ele>
        <time>2015-09-04T04:18:27Z</time>
      </trkpt>
      <trkpt lat="33.80828" lon="77.55782">
        <ele>4646</ele>
        <time>2015-09-04T04:18:34Z</time>
      </trkpt>
      <trkpt lat="33.80824" lon="77.5579">
        <ele>4647</ele>
        <time>2015-09-04T04:18:47Z</time>
      </trkpt>
      <trkpt lat="33.80816" lon="77.55792">
        <ele>4648.2</ele>
        <time>2015-09-04T04:19:03Z</time>
      </trkpt>
      <trkpt lat="33.80811" lon="77.55794">
        <ele>4649.2</ele>
        <time>2015-09-04T04:19:13Z</time>
      </trkpt>
      <trkpt lat="33.80808" lon="77.55802">
        <ele>4650.2</ele>
        <time>2015-09-04T04:19:27Z</time>
      </trkpt>
      <trkpt lat="33.80802" lon="77.55808">
        <ele>4651.2</ele>
        <time>2015-09-04T04:19:41Z</time>
      </trkpt>
      <trkpt lat="33.80799" lon="77.55807">
        <ele>4652.4</ele>
        <time>2015-09-04T04:19:53Z</time>
      </trkpt>
      <trkpt lat="33.80794" lon="77.5581">
        <ele>4653.4</ele>
        <time>2015-09-04T04:20:09Z</time>
      </trkpt>
      <trkpt lat="33.80791" lon="77.55814">
        <ele>4654.6</ele>
        <time>2015-09-04T04:20:22Z</time>
      </trkpt>
      <trkpt lat="33.80788" lon="77.55819">
        <ele>4655.6</ele>
        <time>2015-09-04T04:20:33Z</time>
      </trkpt>
      <trkpt lat="33.80786" lon="77.55825">
        <ele>4656.6</ele>
        <time>2015-09-04T04:20:47Z</time>
      </trkpt>
      <trkpt lat="33.80782" lon="77.55828">
        <ele>4657.6</ele>
        <time>2015-09-04T04:20:55Z</time>
      </trkpt>
      <trkpt lat="33.80779" lon="77.55829">
        <ele>4658.6</ele>
        <time>2015-09-04T04:21:04Z</time>
      </trkpt>
      <trkpt lat="33.80772" lon="77.55837">
        <ele>4659.2</ele>
        <time>2015-09-04T04:21:17Z</time>
      </trkpt>
      <trkpt lat="33.80754" lon="77.55838">
        <ele>4659.6</ele>
        <time>2015-09-04T04:21:44Z</time>
      </trkpt>
      <trkpt lat="33.80738" lon="77.55837">
        <ele>4660.8</ele>
        <time>2015-09-04T04:22:10Z</time>
      </trkpt>
      <trkpt lat="33.80737" lon="77.55837">
        <ele>4660.8</ele>
        <time>2015-09-04T04:22:11Z</time>
      </trkpt>
      <trkpt lat="33.8073" lon="77.55838">
        <ele>4661.8</ele>
        <time>2015-09-04T04:22:24Z</time>
      </trkpt>
      <trkpt lat="33.80722" lon="77.55846">
        <ele>4662.8</ele>
        <time>2015-09-04T04:22:41Z</time>
      </trkpt>
      <trkpt lat="33.80718" lon="77.5585">
        <ele>4663.8</ele>
        <time>2015-09-04T04:22:51Z</time>
      </trkpt>
      <trkpt lat="33.80714" lon="77.55854">
        <ele>4665</ele>
        <time>2015-09-04T04:23:01Z</time>
      </trkpt>
      <trkpt lat="33.80712" lon="77.55859">
        <ele>4666</ele>
        <time>2015-09-04T04:23:10Z</time>
      </trkpt>
      <trkpt lat="33.80707" lon="77.55866">
        <ele>4667</ele>
        <time>2015-09-04T04:23:20Z</time>
      </trkpt>
      <trkpt lat="33.80703" lon="77.55871">
        <ele>4668</ele>
        <time>2015-09-04T04:23:42Z</time>
      </trkpt>
      <trkpt lat="33.80699" lon="77.55877">
        <ele>4669.2</ele>
        <time>2015-09-04T04:23:52Z</time>
      </trkpt>
      <trkpt lat="33.80698" lon="77.55882">
        <ele>4670.2</ele>
        <time>2015-09-04T04:24:01Z</time>
      </trkpt>
      <trkpt lat="33.80692" lon="77.55888">
        <ele>4671.4</ele>
        <time>2015-09-04T04:24:14Z</time>
      </trkpt>
      <trkpt lat="33.8069" lon="77.5589">
        <ele>4672.4</ele>
        <time>2015-09-04T04:24:22Z</time>
      </trkpt>
      <trkpt lat="33.80686" lon="77.55891">
        <ele>4673.6</ele>
        <time>2015-09-04T04:24:37Z</time>
      </trkpt>
      <trkpt lat="33.80685" lon="77.55894">
        <ele>4674.6</ele>
        <time>2015-09-04T04:24:51Z</time>
      </trkpt>
      <trkpt lat="33.80681" lon="77.559">
        <ele>4675.6</ele>
        <time>2015-09-04T04:25:03Z</time>
      </trkpt>
      <trkpt lat="33.80678" lon="77.55911">
        <ele>4676.6</ele>
        <time>2015-09-04T04:25:19Z</time>
      </trkpt>
      <trkpt lat="33.80676" lon="77.55915">
        <ele>4677.6</ele>
        <time>2015-09-04T04:25:27Z</time>
      </trkpt>
      <trkpt lat="33.80675" lon="77.55926">
        <ele>4678.2</ele>
        <time>2015-09-04T04:25:43Z</time>
      </trkpt>
      <trkpt lat="33.80673" lon="77.55928">
        <ele>4678.8</ele>
        <time>2015-09-04T04:25:51Z</time>
      </trkpt>
      <trkpt lat="33.80669" lon="77.5593">
        <ele>4679.8</ele>
        <time>2015-09-04T04:26:02Z</time>
      </trkpt>
      <trkpt lat="33.80669" lon="77.55935">
        <ele>4680.8</ele>
        <time>2015-09-04T04:26:13Z</time>
      </trkpt>
      <trkpt lat="33.80668" lon="77.55944">
        <ele>4681.6</ele>
        <time>2015-09-04T04:26:27Z</time>
      </trkpt>
      <trkpt lat="33.80667" lon="77.55947">
        <ele>4681.8</ele>
        <time>2015-09-04T04:26:35Z</time>
      </trkpt>
      <trkpt lat="33.80669" lon="77.55951">
        <ele>4682.8</ele>
        <time>2015-09-04T04:27:09Z</time>
      </trkpt>
      <trkpt lat="33.80674" lon="77.55949">
        <ele>4682.8</ele>
        <time>2015-09-04T04:27:30Z</time>
      </trkpt>
      <trkpt lat="33.80672" lon="77.55945">
        <ele>4682.4</ele>
        <time>2015-09-04T04:27:35Z</time>
      </trkpt>
      <trkpt lat="33.80671" lon="77.55939">
        <ele>4681.8</ele>
        <time>2015-09-04T04:27:39Z</time>
      </trkpt>
      <trkpt lat="33.80676" lon="77.55947">
        <ele>4682.8</ele>
        <time>2015-09-04T04:28:06Z</time>
      </trkpt>
      <trkpt lat="33.8067" lon="77.55949">
        <ele>4682.8</ele>
        <time>2015-09-04T04:28:52Z</time>
      </trkpt>
      <trkpt lat="33.80669" lon="77.55949">
        <ele>4682.4</ele>
        <time>2015-09-04T04:28:55Z</time>
      </trkpt>
      <trkpt lat="33.80668" lon="77.55946">
        <ele>4682.8</ele>
        <time>2015-09-04T04:29:29Z</time>
      </trkpt>
      <trkpt lat="33.8067" lon="77.55948">
        <ele>4682.6</ele>
        <time>2015-09-04T04:29:32Z</time>
      </trkpt>
      <trkpt lat="33.80672" lon="77.55946">
        <ele>4682.2</ele>
        <time>2015-09-04T04:29:36Z</time>
      </trkpt>
      <trkpt lat="33.80662" lon="77.5593">
        <ele>4682.2</ele>
        <time>2015-09-04T04:30:04Z</time>
      </trkpt>
      <trkpt lat="33.8066" lon="77.55924">
        <ele>4682.6</ele>
        <time>2015-09-04T04:30:12Z</time>
      </trkpt>
      <trkpt lat="33.80653" lon="77.55922">
        <ele>4683.8</ele>
        <time>2015-09-04T04:30:23Z</time>
      </trkpt>
      <trkpt lat="33.80639" lon="77.55921">
        <ele>4684.8</ele>
        <time>2015-09-04T04:30:40Z</time>
      </trkpt>
      <trkpt lat="33.80638" lon="77.55919">
        <ele>4685</ele>
        <time>2015-09-04T04:30:42Z</time>
      </trkpt>
      <trkpt lat="33.80633" lon="77.55912">
        <ele>4685.8</ele>
        <time>2015-09-04T04:30:56Z</time>
      </trkpt>
      <trkpt lat="33.80633" lon="77.55911">
        <ele>4686</ele>
        <time>2015-09-04T04:30:57Z</time>
      </trkpt>
      <trkpt lat="33.80627" lon="77.55912">
        <ele>4686.6</ele>
        <time>2015-09-04T04:31:05Z</time>
      </trkpt>
      <trkpt lat="33.80626" lon="77.5591">
        <ele>4687.2</ele>
        <time>2015-09-04T04:31:13Z</time>
      </trkpt>
      <trkpt lat="33.80627" lon="77.55906">
        <ele>4688.2</ele>
        <time>2015-09-04T04:31:22Z</time>
      </trkpt>
      <trkpt lat="33.80619" lon="77.55898">
        <ele>4689.2</ele>
        <time>2015-09-04T04:31:39Z</time>
      </trkpt>
      <trkpt lat="33.80615" lon="77.559">
        <ele>4688.8</ele>
        <time>2015-09-04T04:31:46Z</time>
      </trkpt>
      <trkpt lat="33.80613" lon="77.55903">
        <ele>4688.8</ele>
        <time>2015-09-04T04:31:49Z</time>
      </trkpt>
      <trkpt lat="33.80611" lon="77.55909">
        <ele>4689.4</ele>
        <time>2015-09-04T04:31:59Z</time>
      </trkpt>
      <trkpt lat="33.80609" lon="77.55914">
        <ele>4689.6</ele>
        <time>2015-09-04T04:32:03Z</time>
      </trkpt>
      <trkpt lat="33.80607" lon="77.55918">
        <ele>4689.4</ele>
        <time>2015-09-04T04:32:07Z</time>
      </trkpt>
      <trkpt lat="33.80607" lon="77.55923">
        <ele>4689.8</ele>
        <time>2015-09-04T04:32:17Z</time>
      </trkpt>
      <trkpt lat="33.80604" lon="77.55914">
        <ele>4690.4</ele>
        <time>2015-09-04T04:32:38Z</time>
      </trkpt>
      <trkpt lat="33.80604" lon="77.55914">
        <ele>4690.4</ele>
        <time>2015-09-04T04:32:39Z</time>
      </trkpt>
      <trkpt lat="33.80611" lon="77.55919">
        <ele>4690.2</ele>
        <time>2015-09-04T04:33:39Z</time>
      </trkpt>
      <trkpt lat="33.80609" lon="77.5592">
        <ele>4689.2</ele>
        <time>2015-09-04T04:34:01Z</time>
      </trkpt>
      <trkpt lat="33.8061" lon="77.55917">
        <ele>4688.8</ele>
        <time>2015-09-04T04:34:50Z</time>
      </trkpt>
      <trkpt lat="33.80609" lon="77.55918">
        <ele>4689</ele>
        <time>2015-09-04T04:35:41Z</time>
      </trkpt>
      <trkpt lat="33.80612" lon="77.55917">
        <ele>4689</ele>
        <time>2015-09-04T04:36:19Z</time>
      </trkpt>
      <trkpt lat="33.80611" lon="77.55918">
        <ele>4689.2</ele>
        <time>2015-09-04T04:36:57Z</time>
      </trkpt>
      <trkpt lat="33.80611" lon="77.55918">
        <ele>4689.6</ele>
        <time>2015-09-04T04:37:37Z</time>
      </trkpt>
      <trkpt lat="33.8061" lon="77.55918">
        <ele>4689.8</ele>
        <time>2015-09-04T04:38:14Z</time>
      </trkpt>
      <trkpt lat="33.8061" lon="77.55918">
        <ele>4690</ele>
        <time>2015-09-04T04:38:51Z</time>
      </trkpt>
      <trkpt lat="33.8061" lon="77.55918">
        <ele>4690.2</ele>
        <time>2015-09-04T04:39:29Z</time>
      </trkpt>
      <trkpt lat="33.80607" lon="77.5592">
        <ele>4691</ele>
        <time>2015-09-04T04:40:10Z</time>
      </trkpt>
      <trkpt lat="33.80608" lon="77.55921">
        <ele>4690.8</ele>
        <time>2015-09-04T04:42:19Z</time>
      </trkpt>
      <trkpt lat="33.80609" lon="77.55921">
        <ele>4691.4</ele>
        <time>2015-09-04T04:44:29Z</time>
      </trkpt>
      <trkpt lat="33.80608" lon="77.55921">
        <ele>4692</ele>
        <time>2015-09-04T04:44:33Z</time>
      </trkpt>
      <trkpt lat="33.80608" lon="77.55921">
        <ele>4692.4</ele>
        <time>2015-09-04T04:44:35Z</time>
      </trkpt>
      <trkpt lat="33.80606" lon="77.55921">
        <ele>4692.4</ele>
        <time>2015-09-04T04:45:35Z</time>
      </trkpt>
      <trkpt lat="33.80606" lon="77.5592">
        <ele>4692.2</ele>
        <time>2015-09-04T04:45:41Z</time>
      </trkpt>
      <trkpt lat="33.80603" lon="77.55929">
        <ele>4692.6</ele>
        <time>2015-09-04T04:46:32Z</time>
      </trkpt>
      <trkpt lat="33.80602" lon="77.55929">
        <ele>4692.8</ele>
        <time>2015-09-04T04:46:34Z</time>
      </trkpt>
      <trkpt lat="33.80603" lon="77.55932">
        <ele>4693.4</ele>
        <time>2015-09-04T04:46:43Z</time>
      </trkpt>
      <trkpt lat="33.80603" lon="77.5594">
        <ele>4693.8</ele>
        <time>2015-09-04T04:46:59Z</time>
      </trkpt>
      <trkpt lat="33.80607" lon="77.55949">
        <ele>4693.6</ele>
        <time>2015-09-04T04:47:08Z</time>
      </trkpt>
      <trkpt lat="33.80606" lon="77.55958">
        <ele>4693.2</ele>
        <time>2015-09-04T04:47:18Z</time>
      </trkpt>
      <trkpt lat="33.80605" lon="77.55959">
        <ele>4693.2</ele>
        <time>2015-09-04T04:47:20Z</time>
      </trkpt>
      <trkpt lat="33.80604" lon="77.5597">
        <ele>4693.2</ele>
        <time>2015-09-04T04:47:38Z</time>
      </trkpt>
      <trkpt lat="33.80599" lon="77.55977">
        <ele>4692.6</ele>
        <time>2015-09-04T04:47:46Z</time>
      </trkpt>
      <trkpt lat="33.80593" lon="77.55987">
        <ele>4692.4</ele>
        <time>2015-09-04T04:48:04Z</time>
      </trkpt>
      <trkpt lat="33.80594" lon="77.55989">
        <ele>4692.2</ele>
        <time>2015-09-04T04:48:06Z</time>
      </trkpt>
      <trkpt lat="33.80593" lon="77.55993">
        <ele>4691.4</ele>
        <time>2015-09-04T04:48:09Z</time>
      </trkpt>
      <trkpt lat="33.80593" lon="77.55995">
        <ele>4691.2</ele>
        <time>2015-09-04T04:48:10Z</time>
      </trkpt>
      <trkpt lat="33.80595" lon="77.56015">
        <ele>4690.6</ele>
        <time>2015-09-04T04:48:32Z</time>
      </trkpt>
      <trkpt lat="33.80596" lon="77.56017">
        <ele>4690.6</ele>
        <time>2015-09-04T04:48:34Z</time>
      </trkpt>
      <trkpt lat="33.80597" lon="77.56019">
        <ele>4690.6</ele>
        <time>2015-09-04T04:48:37Z</time>
      </trkpt>
      <trkpt lat="33.80597" lon="77.56021">
        <ele>4690.2</ele>
        <time>2015-09-04T04:48:39Z</time>
      </trkpt>
      <trkpt lat="33.80599" lon="77.56023">
        <ele>4690</ele>
        <time>2015-09-04T04:48:41Z</time>
      </trkpt>
      <trkpt lat="33.80603" lon="77.5604">
        <ele>4690</ele>
        <time>2015-09-04T04:49:08Z</time>
      </trkpt>
      <trkpt lat="33.80605" lon="77.56044">
        <ele>4690.2</ele>
        <time>2015-09-04T04:49:17Z</time>
      </trkpt>
      <trkpt lat="33.80607" lon="77.56051">
        <ele>4690.2</ele>
        <time>2015-09-04T04:49:23Z</time>
      </trkpt>
      <trkpt lat="33.80607" lon="77.56054">
        <ele>4690.4</ele>
        <time>2015-09-04T04:49:26Z</time>
      </trkpt>
      <trkpt lat="33.80607" lon="77.5606">
        <ele>4690.6</ele>
        <time>2015-09-04T04:49:33Z</time>
      </trkpt>
      <trkpt lat="33.80609" lon="77.56063">
        <ele>4690.8</ele>
        <time>2015-09-04T04:49:35Z</time>
      </trkpt>
      <trkpt lat="33.80612" lon="77.5607">
        <ele>4691.2</ele>
        <time>2015-09-04T04:49:41Z</time>
      </trkpt>
      <trkpt lat="33.80613" lon="77.56072">
        <ele>4691.2</ele>
        <time>2015-09-04T04:49:45Z</time>
      </trkpt>
      <trkpt lat="33.80615" lon="77.56074">
        <ele>4691.4</ele>
        <time>2015-09-04T04:49:48Z</time>
      </trkpt>
      <trkpt lat="33.80618" lon="77.56079">
        <ele>4691.6</ele>
        <time>2015-09-04T04:49:55Z</time>
      </trkpt>
      <trkpt lat="33.80617" lon="77.56081">
        <ele>4691.8</ele>
        <time>2015-09-04T04:49:57Z</time>
      </trkpt>
      <trkpt lat="33.80611" lon="77.56087">
        <ele>4692.4</ele>
        <time>2015-09-04T04:50:07Z</time>
      </trkpt>
      <trkpt lat="33.80609" lon="77.56093">
        <ele>4692.4</ele>
        <time>2015-09-04T04:50:14Z</time>
      </trkpt>
      <trkpt lat="33.80604" lon="77.56098">
        <ele>4693.4</ele>
        <time>2015-09-04T04:50:27Z</time>
      </trkpt>
      <trkpt lat="33.806" lon="77.56105">
        <ele>4694.4</ele>
        <time>2015-09-04T04:50:40Z</time>
      </trkpt>
      <trkpt lat="33.80597" lon="77.56114">
        <ele>4695.4</ele>
        <time>2015-09-04T04:50:57Z</time>
      </trkpt>
      <trkpt lat="33.80596" lon="77.56131">
        <ele>4696.4</ele>
        <time>2015-09-04T04:51:23Z</time>
      </trkpt>
      <trkpt lat="33.80592" lon="77.56135">
        <ele>4696.8</ele>
        <time>2015-09-04T04:51:29Z</time>
      </trkpt>
      <trkpt lat="33.80592" lon="77.5615">
        <ele>4697.4</ele>
        <time>2015-09-04T04:51:51Z</time>
      </trkpt>
      <trkpt lat="33.80588" lon="77.56163">
        <ele>4698</ele>
        <time>2015-09-04T04:52:09Z</time>
      </trkpt>
      <trkpt lat="33.80587" lon="77.56176">
        <ele>4698.4</ele>
        <time>2015-09-04T04:52:21Z</time>
      </trkpt>
      <trkpt lat="33.80576" lon="77.56191">
        <ele>4699.2</ele>
        <time>2015-09-04T04:52:44Z</time>
      </trkpt>
      <trkpt lat="33.80575" lon="77.56191">
        <ele>4699.2</ele>
        <time>2015-09-04T04:52:45Z</time>
      </trkpt>
      <trkpt lat="33.80568" lon="77.56197">
        <ele>4699.4</ele>
        <time>2015-09-04T04:52:54Z</time>
      </trkpt>
      <trkpt lat="33.80567" lon="77.562">
        <ele>4699.4</ele>
        <time>2015-09-04T04:52:57Z</time>
      </trkpt>
      <trkpt lat="33.80562" lon="77.56209">
        <ele>4699.4</ele>
        <time>2015-09-04T04:53:09Z</time>
      </trkpt>
      <trkpt lat="33.80558" lon="77.56218">
        <ele>4700.6</ele>
        <time>2015-09-04T04:53:28Z</time>
      </trkpt>
      <trkpt lat="33.80556" lon="77.5622">
        <ele>4701</ele>
        <time>2015-09-04T04:53:32Z</time>
      </trkpt>
      <trkpt lat="33.8055" lon="77.56229">
        <ele>4701.6</ele>
        <time>2015-09-04T04:53:43Z</time>
      </trkpt>
      <trkpt lat="33.8055" lon="77.5623">
        <ele>4701.6</ele>
        <time>2015-09-04T04:53:44Z</time>
      </trkpt>
      <trkpt lat="33.8055" lon="77.56242">
        <ele>4702.6</ele>
        <time>2015-09-04T04:53:59Z</time>
      </trkpt>
      <trkpt lat="33.80549" lon="77.5625">
        <ele>4703.6</ele>
        <time>2015-09-04T04:54:13Z</time>
      </trkpt>
      <trkpt lat="33.80549" lon="77.56261">
        <ele>4704.8</ele>
        <time>2015-09-04T04:54:31Z</time>
      </trkpt>
      <trkpt lat="33.80544" lon="77.56268">
        <ele>4705.8</ele>
        <time>2015-09-04T04:54:44Z</time>
      </trkpt>
      <trkpt lat="33.80537" lon="77.56276">
        <ele>4706.8</ele>
        <time>2015-09-04T04:54:56Z</time>
      </trkpt>
      <trkpt lat="33.80537" lon="77.56282">
        <ele>4708</ele>
        <time>2015-09-04T04:55:09Z</time>
      </trkpt>
      <trkpt lat="33.80529" lon="77.56294">
        <ele>4709</ele>
        <time>2015-09-04T04:55:27Z</time>
      </trkpt>
      <trkpt lat="33.80529" lon="77.56295">
        <ele>4709</ele>
        <time>2015-09-04T04:55:28Z</time>
      </trkpt>
      <trkpt lat="33.80528" lon="77.56296">
        <ele>4709</ele>
        <time>2015-09-04T04:55:30Z</time>
      </trkpt>
      <trkpt lat="33.80519" lon="77.56312">
        <ele>4710</ele>
        <time>2015-09-04T04:55:56Z</time>
      </trkpt>
      <trkpt lat="33.80514" lon="77.56316">
        <ele>4710</ele>
        <time>2015-09-04T04:56:03Z</time>
      </trkpt>
      <trkpt lat="33.80513" lon="77.56317">
        <ele>4710.2</ele>
        <time>2015-09-04T04:56:05Z</time>
      </trkpt>
      <trkpt lat="33.80512" lon="77.56322">
        <ele>4710.2</ele>
        <time>2015-09-04T04:56:10Z</time>
      </trkpt>
      <trkpt lat="33.8051" lon="77.56325">
        <ele>4710.4</ele>
        <time>2015-09-04T04:56:14Z</time>
      </trkpt>
      <trkpt lat="33.80511" lon="77.56331">
        <ele>4711</ele>
        <time>2015-09-04T04:56:23Z</time>
      </trkpt>
      <trkpt lat="33.80505" lon="77.5634">
        <ele>4712</ele>
        <time>2015-09-04T04:56:36Z</time>
      </trkpt>
      <trkpt lat="33.80508" lon="77.56351">
        <ele>4712.2</ele>
        <time>2015-09-04T04:56:50Z</time>
      </trkpt>
      <trkpt lat="33.80505" lon="77.56359">
        <ele>4713</ele>
        <time>2015-09-04T04:57:03Z</time>
      </trkpt>
      <trkpt lat="33.80503" lon="77.56362">
        <ele>4713.6</ele>
        <time>2015-09-04T04:57:09Z</time>
      </trkpt>
      <trkpt lat="33.80501" lon="77.56362">
        <ele>4714</ele>
        <time>2015-09-04T04:57:14Z</time>
      </trkpt>
      <trkpt lat="33.805" lon="77.56367">
        <ele>4715</ele>
        <time>2015-09-04T04:57:23Z</time>
      </trkpt>
      <trkpt lat="33.80497" lon="77.56376">
        <ele>4716.2</ele>
        <time>2015-09-04T04:57:34Z</time>
      </trkpt>
      <trkpt lat="33.80495" lon="77.5638">
        <ele>4716.2</ele>
        <time>2015-09-04T04:57:37Z</time>
      </trkpt>
      <trkpt lat="33.80491" lon="77.56387">
        <ele>4717.2</ele>
        <time>2015-09-04T04:57:58Z</time>
      </trkpt>
      <trkpt lat="33.80489" lon="77.56391">
        <ele>4718.2</ele>
        <time>2015-09-04T04:58:09Z</time>
      </trkpt>
      <trkpt lat="33.80487" lon="77.56403">
        <ele>4719.4</ele>
        <time>2015-09-04T04:58:26Z</time>
      </trkpt>
      <trkpt lat="33.80482" lon="77.5641">
        <ele>4720.4</ele>
        <time>2015-09-04T04:58:38Z</time>
      </trkpt>
      <trkpt lat="33.80479" lon="77.56418">
        <ele>4721.4</ele>
        <time>2015-09-04T04:58:54Z</time>
      </trkpt>
      <trkpt lat="33.8047" lon="77.56423">
        <ele>4722.2</ele>
        <time>2015-09-04T04:59:12Z</time>
      </trkpt>
      <trkpt lat="33.80469" lon="77.56425">
        <ele>4722.4</ele>
        <time>2015-09-04T04:59:14Z</time>
      </trkpt>
      <trkpt lat="33.80469" lon="77.56426">
        <ele>4722.4</ele>
        <time>2015-09-04T04:59:16Z</time>
      </trkpt>
      <trkpt lat="33.80466" lon="77.56434">
        <ele>4723.4</ele>
        <time>2015-09-04T04:59:33Z</time>
      </trkpt>
      <trkpt lat="33.80463" lon="77.56442">
        <ele>4724.6</ele>
        <time>2015-09-04T04:59:46Z</time>
      </trkpt>
      <trkpt lat="33.8046" lon="77.56451">
        <ele>4725.6</ele>
        <time>2015-09-04T05:00:06Z</time>
      </trkpt>
      <trkpt lat="33.8046" lon="77.56459">
        <ele>4726.6</ele>
        <time>2015-09-04T05:00:20Z</time>
      </trkpt>
      <trkpt lat="33.80459" lon="77.56464">
        <ele>4727.6</ele>
        <time>2015-09-04T05:00:32Z</time>
      </trkpt>
      <trkpt lat="33.80454" lon="77.56475">
        <ele>4728</ele>
        <time>2015-09-04T05:00:45Z</time>
      </trkpt>
      <trkpt lat="33.8045" lon="77.56482">
        <ele>4728.8</ele>
        <time>2015-09-04T05:01:02Z</time>
      </trkpt>
      <trkpt lat="33.80445" lon="77.56486">
        <ele>4729.8</ele>
        <time>2015-09-04T05:01:14Z</time>
      </trkpt>
      <trkpt lat="33.80443" lon="77.56488">
        <ele>4731</ele>
        <time>2015-09-04T05:01:27Z</time>
      </trkpt>
      <trkpt lat="33.80439" lon="77.56496">
        <ele>4732</ele>
        <time>2015-09-04T05:01:44Z</time>
      </trkpt>
      <trkpt lat="33.80435" lon="77.56503">
        <ele>4733</ele>
        <time>2015-09-04T05:01:55Z</time>
      </trkpt>
      <trkpt lat="33.8043" lon="77.56516">
        <ele>4734</ele>
        <time>2015-09-04T05:02:17Z</time>
      </trkpt>
      <trkpt lat="33.80428" lon="77.5652">
        <ele>4735.2</ele>
        <time>2015-09-04T05:02:25Z</time>
      </trkpt>
      <trkpt lat="33.80427" lon="77.56522">
        <ele>4736.2</ele>
        <time>2015-09-04T05:02:37Z</time>
      </trkpt>
      <trkpt lat="33.80427" lon="77.56529">
        <ele>4737.4</ele>
        <time>2015-09-04T05:02:48Z</time>
      </trkpt>
      <trkpt lat="33.80423" lon="77.56535">
        <ele>4738.4</ele>
        <time>2015-09-04T05:03:01Z</time>
      </trkpt>
      <trkpt lat="33.80418" lon="77.5655">
        <ele>4739.4</ele>
        <time>2015-09-04T05:03:19Z</time>
      </trkpt>
      <trkpt lat="33.80416" lon="77.56551">
        <ele>4739.4</ele>
        <time>2015-09-04T05:03:22Z</time>
      </trkpt>
      <trkpt lat="33.80413" lon="77.56558">
        <ele>4740.4</ele>
        <time>2015-09-04T05:03:34Z</time>
      </trkpt>
      <trkpt lat="33.8041" lon="77.56567">
        <ele>4741</ele>
        <time>2015-09-04T05:03:44Z</time>
      </trkpt>
      <trkpt lat="33.80407" lon="77.56573">
        <ele>4741.4</ele>
        <time>2015-09-04T05:03:56Z</time>
      </trkpt>
      <trkpt lat="33.80408" lon="77.56581">
        <ele>4742</ele>
        <time>2015-09-04T05:04:05Z</time>
      </trkpt>
      <trkpt lat="33.80408" lon="77.56587">
        <ele>4742.6</ele>
        <time>2015-09-04T05:04:13Z</time>
      </trkpt>
      <trkpt lat="33.80402" lon="77.56596">
        <ele>4743.6</ele>
        <time>2015-09-04T05:04:30Z</time>
      </trkpt>
      <trkpt lat="33.80399" lon="77.56608">
        <ele>4744.6</ele>
        <time>2015-09-04T05:04:48Z</time>
      </trkpt>
      <trkpt lat="33.80399" lon="77.56609">
        <ele>4744.8</ele>
        <time>2015-09-04T05:04:50Z</time>
      </trkpt>
      <trkpt lat="33.80398" lon="77.56614">
        <ele>4745.6</ele>
        <time>2015-09-04T05:04:57Z</time>
      </trkpt>
      <trkpt lat="33.80398" lon="77.56615">
        <ele>4745.8</ele>
        <time>2015-09-04T05:04:58Z</time>
      </trkpt>
      <trkpt lat="33.80395" lon="77.5662">
        <ele>4746.4</ele>
        <time>2015-09-04T05:05:03Z</time>
      </trkpt>
      <trkpt lat="33.80392" lon="77.5662">
        <ele>4746.6</ele>
        <time>2015-09-04T05:05:06Z</time>
      </trkpt>
      <trkpt lat="33.80393" lon="77.56621">
        <ele>4746.8</ele>
        <time>2015-09-04T05:05:07Z</time>
      </trkpt>
      <trkpt lat="33.80394" lon="77.56623">
        <ele>4747</ele>
        <time>2015-09-04T05:05:09Z</time>
      </trkpt>
      <trkpt lat="33.80393" lon="77.56623">
        <ele>4747</ele>
        <time>2015-09-04T05:05:11Z</time>
      </trkpt>
      <trkpt lat="33.80392" lon="77.56636">
        <ele>4747.8</ele>
        <time>2015-09-04T05:05:27Z</time>
      </trkpt>
      <trkpt lat="33.80388" lon="77.56645">
        <ele>4748.8</ele>
        <time>2015-09-04T05:05:37Z</time>
      </trkpt>
      <trkpt lat="33.80387" lon="77.56645">
        <ele>4748.8</ele>
        <time>2015-09-04T05:05:38Z</time>
      </trkpt>
      <trkpt lat="33.80378" lon="77.56661">
        <ele>4749.8</ele>
        <time>2015-09-04T05:06:01Z</time>
      </trkpt>
      <trkpt lat="33.80371" lon="77.5668">
        <ele>4750</ele>
        <time>2015-09-04T05:06:26Z</time>
      </trkpt>
      <trkpt lat="33.80368" lon="77.56684">
        <ele>4750.2</ele>
        <time>2015-09-04T05:06:30Z</time>
      </trkpt>
      <trkpt lat="33.80367" lon="77.56685">
        <ele>4750.4</ele>
        <time>2015-09-04T05:06:32Z</time>
      </trkpt>
      <trkpt lat="33.80365" lon="77.56688">
        <ele>4750.8</ele>
        <time>2015-09-04T05:06:37Z</time>
      </trkpt>
      <trkpt lat="33.80356" lon="77.56696">
        <ele>4751.8</ele>
        <time>2015-09-04T05:06:52Z</time>
      </trkpt>
      <trkpt lat="33.80353" lon="77.56699">
        <ele>4752.2</ele>
        <time>2015-09-04T05:06:56Z</time>
      </trkpt>
      <trkpt lat="33.8035" lon="77.56701">
        <ele>4752.2</ele>
        <time>2015-09-04T05:06:59Z</time>
      </trkpt>
      <trkpt lat="33.80347" lon="77.56701">
        <ele>4752.4</ele>
        <time>2015-09-04T05:07:03Z</time>
      </trkpt>
      <trkpt lat="33.8034" lon="77.56709">
        <ele>4753</ele>
        <time>2015-09-04T05:07:18Z</time>
      </trkpt>
      <trkpt lat="33.80338" lon="77.56711">
        <ele>4753</ele>
        <time>2015-09-04T05:07:21Z</time>
      </trkpt>
      <trkpt lat="33.8033" lon="77.5672">
        <ele>4753</ele>
        <time>2015-09-04T05:07:32Z</time>
      </trkpt>
      <trkpt lat="33.80324" lon="77.56725">
        <ele>4753.4</ele>
        <time>2015-09-04T05:07:40Z</time>
      </trkpt>
      <trkpt lat="33.8032" lon="77.56729">
        <ele>4753.4</ele>
        <time>2015-09-04T05:07:47Z</time>
      </trkpt>
      <trkpt lat="33.80309" lon="77.56735">
        <ele>4753.8</ele>
        <time>2015-09-04T05:08:01Z</time>
      </trkpt>
      <trkpt lat="33.80307" lon="77.56737">
        <ele>4754</ele>
        <time>2015-09-04T05:08:04Z</time>
      </trkpt>
      <trkpt lat="33.80304" lon="77.56737">
        <ele>4754.4</ele>
        <time>2015-09-04T05:08:08Z</time>
      </trkpt>
      <trkpt lat="33.80302" lon="77.56737">
        <ele>4754.8</ele>
        <time>2015-09-04T05:08:11Z</time>
      </trkpt>
      <trkpt lat="33.803" lon="77.56738">
        <ele>4755</ele>
        <time>2015-09-04T05:08:14Z</time>
      </trkpt>
      <trkpt lat="33.80299" lon="77.56739">
        <ele>4755</ele>
        <time>2015-09-04T05:08:15Z</time>
      </trkpt>
      <trkpt lat="33.80291" lon="77.56749">
        <ele>4755</ele>
        <time>2015-09-04T05:08:30Z</time>
      </trkpt>
      <trkpt lat="33.8029" lon="77.56752">
        <ele>4754.8</ele>
        <time>2015-09-04T05:08:32Z</time>
      </trkpt>
      <trkpt lat="33.80285" lon="77.56755">
        <ele>4753.8</ele>
        <time>2015-09-04T05:08:40Z</time>
      </trkpt>
      <trkpt lat="33.80282" lon="77.56758">
        <ele>4753.4</ele>
        <time>2015-09-04T05:08:44Z</time>
      </trkpt>
      <trkpt lat="33.80272" lon="77.56762">
        <ele>4752.8</ele>
        <time>2015-09-04T05:08:56Z</time>
      </trkpt>
      <trkpt lat="33.80265" lon="77.56775">
        <ele>4751.8</ele>
        <time>2015-09-04T05:09:06Z</time>
      </trkpt>
      <trkpt lat="33.80259" lon="77.56788">
        <ele>4750.8</ele>
        <time>2015-09-04T05:09:19Z</time>
      </trkpt>
      <trkpt lat="33.80256" lon="77.56791">
        <ele>4751</ele>
        <time>2015-09-04T05:09:23Z</time>
      </trkpt>
      <trkpt lat="33.80248" lon="77.56809">
        <ele>4752.8</ele>
        <time>2015-09-04T05:09:46Z</time>
      </trkpt>
      <trkpt lat="33.80247" lon="77.56816">
        <ele>4753</ele>
        <time>2015-09-04T05:09:54Z</time>
      </trkpt>
      <trkpt lat="33.80245" lon="77.56826">
        <ele>4753.2</ele>
        <time>2015-09-04T05:10:06Z</time>
      </trkpt>
      <trkpt lat="33.80243" lon="77.5683">
        <ele>4753.6</ele>
        <time>2015-09-04T05:10:10Z</time>
      </trkpt>
      <trkpt lat="33.80242" lon="77.56834">
        <ele>4753.8</ele>
        <time>2015-09-04T05:10:15Z</time>
      </trkpt>
      <trkpt lat="33.80239" lon="77.56838">
        <ele>4754.2</ele>
        <time>2015-09-04T05:10:21Z</time>
      </trkpt>
      <trkpt lat="33.80236" lon="77.56854">
        <ele>4754.8</ele>
        <time>2015-09-04T05:10:39Z</time>
      </trkpt>
      <trkpt lat="33.80233" lon="77.56857">
        <ele>4755.8</ele>
        <time>2015-09-04T05:10:46Z</time>
      </trkpt>
      <trkpt lat="33.80223" lon="77.56868">
        <ele>4757</ele>
        <time>2015-09-04T05:11:07Z</time>
      </trkpt>
      <trkpt lat="33.8022" lon="77.56875">
        <ele>4757.6</ele>
        <time>2015-09-04T05:11:14Z</time>
      </trkpt>
      <trkpt lat="33.80217" lon="77.5688">
        <ele>4758</ele>
        <time>2015-09-04T05:11:21Z</time>
      </trkpt>
      <trkpt lat="33.80212" lon="77.5689">
        <ele>4758.8</ele>
        <time>2015-09-04T05:11:34Z</time>
      </trkpt>
      <trkpt lat="33.80208" lon="77.56889">
        <ele>4759</ele>
        <time>2015-09-04T05:11:37Z</time>
      </trkpt>
      <trkpt lat="33.80207" lon="77.56889">
        <ele>4759.2</ele>
        <time>2015-09-04T05:11:38Z</time>
      </trkpt>
      <trkpt lat="33.80206" lon="77.5689">
        <ele>4759.2</ele>
        <time>2015-09-04T05:11:40Z</time>
      </trkpt>
      <trkpt lat="33.80203" lon="77.56892">
        <ele>4759.6</ele>
        <time>2015-09-04T05:11:47Z</time>
      </trkpt>
      <trkpt lat="33.80202" lon="77.56894">
        <ele>4760</ele>
        <time>2015-09-04T05:11:50Z</time>
      </trkpt>
      <trkpt lat="33.80197" lon="77.56905">
        <ele>4760.8</ele>
        <time>2015-09-04T05:12:05Z</time>
      </trkpt>
      <trkpt lat="33.80197" lon="77.56907">
        <ele>4761</ele>
        <time>2015-09-04T05:12:07Z</time>
      </trkpt>
      <trkpt lat="33.80192" lon="77.56912">
        <ele>4761.6</ele>
        <time>2015-09-04T05:12:18Z</time>
      </trkpt>
      <trkpt lat="33.80191" lon="77.56914">
        <ele>4762</ele>
        <time>2015-09-04T05:12:22Z</time>
      </trkpt>
      <trkpt lat="33.80185" lon="77.56916">
        <ele>4763.2</ele>
        <time>2015-09-04T05:12:31Z</time>
      </trkpt>
      <trkpt lat="33.80178" lon="77.5692">
        <ele>4764.2</ele>
        <time>2015-09-04T05:12:42Z</time>
      </trkpt>
      <trkpt lat="33.80174" lon="77.56923">
        <ele>4765</ele>
        <time>2015-09-04T05:12:50Z</time>
      </trkpt>
      <trkpt lat="33.80175" lon="77.56923">
        <ele>4765.2</ele>
        <time>2015-09-04T05:12:54Z</time>
      </trkpt>
      <trkpt lat="33.80168" lon="77.56928">
        <ele>4766</ele>
        <time>2015-09-04T05:13:07Z</time>
      </trkpt>
      <trkpt lat="33.80166" lon="77.56928">
        <ele>4766</ele>
        <time>2015-09-04T05:13:10Z</time>
      </trkpt>
      <trkpt lat="33.80159" lon="77.56932">
        <ele>4766.2</ele>
        <time>2015-09-04T05:13:22Z</time>
      </trkpt>
      <trkpt lat="33.80154" lon="77.56934">
        <ele>4767.2</ele>
        <time>2015-09-04T05:13:44Z</time>
      </trkpt>
      <trkpt lat="33.80154" lon="77.56937">
        <ele>4767.4</ele>
        <time>2015-09-04T05:13:48Z</time>
      </trkpt>
      <trkpt lat="33.80149" lon="77.5695">
        <ele>4768.4</ele>
        <time>2015-09-04T05:14:06Z</time>
      </trkpt>
      <trkpt lat="33.80147" lon="77.56961">
        <ele>4769.4</ele>
        <time>2015-09-04T05:14:20Z</time>
      </trkpt>
      <trkpt lat="33.80143" lon="77.56971">
        <ele>4770.4</ele>
        <time>2015-09-04T05:14:34Z</time>
      </trkpt>
      <trkpt lat="33.80138" lon="77.56976">
        <ele>4771.4</ele>
        <time>2015-09-04T05:14:48Z</time>
      </trkpt>
      <trkpt lat="33.80137" lon="77.56978">
        <ele>4771.4</ele>
        <time>2015-09-04T05:14:50Z</time>
      </trkpt>
      <trkpt lat="33.80132" lon="77.56981">
        <ele>4772.6</ele>
        <time>2015-09-04T05:15:02Z</time>
      </trkpt>
      <trkpt lat="33.80129" lon="77.56985">
        <ele>4773.6</ele>
        <time>2015-09-04T05:15:13Z</time>
      </trkpt>
      <trkpt lat="33.80122" lon="77.57">
        <ele>4774.8</ele>
        <time>2015-09-04T05:15:36Z</time>
      </trkpt>
      <trkpt lat="33.8012" lon="77.57006">
        <ele>4775.8</ele>
        <time>2015-09-04T05:15:46Z</time>
      </trkpt>
      <trkpt lat="33.80118" lon="77.57013">
        <ele>4776.8</ele>
        <time>2015-09-04T05:15:55Z</time>
      </trkpt>
      <trkpt lat="33.80116" lon="77.57018">
        <ele>4777.8</ele>
        <time>2015-09-04T05:16:04Z</time>
      </trkpt>
      <trkpt lat="33.80106" lon="77.57019">
        <ele>4778.8</ele>
        <time>2015-09-04T05:16:54Z</time>
      </trkpt>
      <trkpt lat="33.801" lon="77.5703">
        <ele>4780</ele>
        <time>2015-09-04T05:17:13Z</time>
      </trkpt>
      <trkpt lat="33.80089" lon="77.57038">
        <ele>4781</ele>
        <time>2015-09-04T05:17:33Z</time>
      </trkpt>
      <trkpt lat="33.80084" lon="77.57043">
        <ele>4782</ele>
        <time>2015-09-04T05:17:49Z</time>
      </trkpt>
      <trkpt lat="33.80078" lon="77.57052">
        <ele>4783</ele>
        <time>2015-09-04T05:18:02Z</time>
      </trkpt>
      <trkpt lat="33.80069" lon="77.57066">
        <ele>4784</ele>
        <time>2015-09-04T05:18:29Z</time>
      </trkpt>
      <trkpt lat="33.80063" lon="77.57075">
        <ele>4785.2</ele>
        <time>2015-09-04T05:18:43Z</time>
      </trkpt>
      <trkpt lat="33.80061" lon="77.57084">
        <ele>4786.4</ele>
        <time>2015-09-04T05:18:57Z</time>
      </trkpt>
      <trkpt lat="33.80054" lon="77.57091">
        <ele>4787.4</ele>
        <time>2015-09-04T05:19:14Z</time>
      </trkpt>
      <trkpt lat="33.80049" lon="77.57097">
        <ele>4788.6</ele>
        <time>2015-09-04T05:19:33Z</time>
      </trkpt>
      <trkpt lat="33.80045" lon="77.57108">
        <ele>4789.6</ele>
        <time>2015-09-04T05:19:46Z</time>
      </trkpt>
      <trkpt lat="33.80045" lon="77.57108">
        <ele>4789.6</ele>
        <time>2015-09-04T05:19:47Z</time>
      </trkpt>
      <trkpt lat="33.80045" lon="77.57111">
        <ele>4790.6</ele>
        <time>2015-09-04T05:19:58Z</time>
      </trkpt>
      <trkpt lat="33.80042" lon="77.57116">
        <ele>4791.6</ele>
        <time>2015-09-04T05:20:11Z</time>
      </trkpt>
      <trkpt lat="33.80041" lon="77.5712">
        <ele>4792</ele>
        <time>2015-09-04T05:20:16Z</time>
      </trkpt>
      <trkpt lat="33.80039" lon="77.57124">
        <ele>4792.8</ele>
        <time>2015-09-04T05:20:22Z</time>
      </trkpt>
      <trkpt lat="33.80032" lon="77.57124">
        <ele>4793.8</ele>
        <time>2015-09-04T05:20:43Z</time>
      </trkpt>
      <trkpt lat="33.8003" lon="77.57132">
        <ele>4794.8</ele>
        <time>2015-09-04T05:20:55Z</time>
      </trkpt>
      <trkpt lat="33.80029" lon="77.57135">
        <ele>4795.4</ele>
        <time>2015-09-04T05:20:59Z</time>
      </trkpt>
      <trkpt lat="33.80025" lon="77.57142">
        <ele>4795.8</ele>
        <time>2015-09-04T05:21:10Z</time>
      </trkpt>
      <trkpt lat="33.80022" lon="77.57146">
        <ele>4796.8</ele>
        <time>2015-09-04T05:21:21Z</time>
      </trkpt>
      <trkpt lat="33.80013" lon="77.57157">
        <ele>4797.8</ele>
        <time>2015-09-04T05:21:46Z</time>
      </trkpt>
      <trkpt lat="33.80013" lon="77.57158">
        <ele>4797.8</ele>
        <time>2015-09-04T05:21:47Z</time>
      </trkpt>
      <trkpt lat="33.80005" lon="77.57169">
        <ele>4798.8</ele>
        <time>2015-09-04T05:22:06Z</time>
      </trkpt>
      <trkpt lat="33.79989" lon="77.57169">
        <ele>4800</ele>
        <time>2015-09-04T05:22:29Z</time>
      </trkpt>
      <trkpt lat="33.7998" lon="77.57176">
        <ele>4801</ele>
        <time>2015-09-04T05:23:05Z</time>
      </trkpt>
      <trkpt lat="33.79975" lon="77.5719">
        <ele>4802</ele>
        <time>2015-09-04T05:23:38Z</time>
      </trkpt>
      <trkpt lat="33.7997" lon="77.57198">
        <ele>4802.8</ele>
        <time>2015-09-04T05:23:48Z</time>
      </trkpt>
      <trkpt lat="33.79969" lon="77.57198">
        <ele>4803</ele>
        <time>2015-09-04T05:23:51Z</time>
      </trkpt>
      <trkpt lat="33.79963" lon="77.57204">
        <ele>4804</ele>
        <time>2015-09-04T05:24:01Z</time>
      </trkpt>
      <trkpt lat="33.79953" lon="77.57214">
        <ele>4805</ele>
        <time>2015-09-04T05:24:20Z</time>
      </trkpt>
      <trkpt lat="33.79937" lon="77.57223">
        <ele>4806</ele>
        <time>2015-09-04T05:24:50Z</time>
      </trkpt>
      <trkpt lat="33.79937" lon="77.57224">
        <ele>4806.2</ele>
        <time>2015-09-04T05:24:51Z</time>
      </trkpt>
      <trkpt lat="33.79931" lon="77.57237">
        <ele>4807.2</ele>
        <time>2015-09-04T05:25:11Z</time>
      </trkpt>
      <trkpt lat="33.79929" lon="77.57242">
        <ele>4808.2</ele>
        <time>2015-09-04T05:25:18Z</time>
      </trkpt>
      <trkpt lat="33.7992" lon="77.57252">
        <ele>4809.2</ele>
        <time>2015-09-04T05:25:32Z</time>
      </trkpt>
      <trkpt lat="33.79913" lon="77.57254">
        <ele>4810.2</ele>
        <time>2015-09-04T05:25:50Z</time>
      </trkpt>
      <trkpt lat="33.79917" lon="77.57254">
        <ele>4810.4</ele>
        <time>2015-09-04T05:26:57Z</time>
      </trkpt>
      <trkpt lat="33.79913" lon="77.57258">
        <ele>4810.8</ele>
        <time>2015-09-04T05:27:35Z</time>
      </trkpt>
      <trkpt lat="33.79914" lon="77.57256">
        <ele>4810.8</ele>
        <time>2015-09-04T05:27:45Z</time>
      </trkpt>
      <trkpt lat="33.79907" lon="77.57261">
        <ele>4811.6</ele>
        <time>2015-09-04T05:28:04Z</time>
      </trkpt>
      <trkpt lat="33.79907" lon="77.57266">
        <ele>4812.6</ele>
        <time>2015-09-04T05:28:10Z</time>
      </trkpt>
      <trkpt lat="33.79895" lon="77.57278">
        <ele>4813.6</ele>
        <time>2015-09-04T05:28:36Z</time>
      </trkpt>
      <trkpt lat="33.79894" lon="77.57279">
        <ele>4813.8</ele>
        <time>2015-09-04T05:28:37Z</time>
      </trkpt>
      <trkpt lat="33.7989" lon="77.57281">
        <ele>4814.8</ele>
        <time>2015-09-04T05:28:45Z</time>
      </trkpt>
      <trkpt lat="33.79886" lon="77.57287">
        <ele>4815.8</ele>
        <time>2015-09-04T05:28:55Z</time>
      </trkpt>
      <trkpt lat="33.79879" lon="77.57289">
        <ele>4816.4</ele>
        <time>2015-09-04T05:29:05Z</time>
      </trkpt>
      <trkpt lat="33.79877" lon="77.57296">
        <ele>4816.8</ele>
        <time>2015-09-04T05:29:12Z</time>
      </trkpt>
      <trkpt lat="33.7988" lon="77.57302">
        <ele>4817.2</ele>
        <time>2015-09-04T05:29:16Z</time>
      </trkpt>
      <trkpt lat="33.79881" lon="77.57305">
        <ele>4817.4</ele>
        <time>2015-09-04T05:29:20Z</time>
      </trkpt>
      <trkpt lat="33.7988" lon="77.57308">
        <ele>4818</ele>
        <time>2015-09-04T05:29:23Z</time>
      </trkpt>
      <trkpt lat="33.79876" lon="77.57322">
        <ele>4818.6</ele>
        <time>2015-09-04T05:29:42Z</time>
      </trkpt>
      <trkpt lat="33.7987" lon="77.57328">
        <ele>4819</ele>
        <time>2015-09-04T05:29:52Z</time>
      </trkpt>
      <trkpt lat="33.79859" lon="77.57342">
        <ele>4820</ele>
        <time>2015-09-04T05:30:14Z</time>
      </trkpt>
      <trkpt lat="33.79857" lon="77.57349">
        <ele>4820.2</ele>
        <time>2015-09-04T05:30:20Z</time>
      </trkpt>
      <trkpt lat="33.79857" lon="77.57351">
        <ele>4820.4</ele>
        <time>2015-09-04T05:30:22Z</time>
      </trkpt>
      <trkpt lat="33.79851" lon="77.57356">
        <ele>4821</ele>
        <time>2015-09-04T05:30:42Z</time>
      </trkpt>
      <trkpt lat="33.79841" lon="77.57373">
        <ele>4822</ele>
        <time>2015-09-04T05:31:11Z</time>
      </trkpt>
      <trkpt lat="33.79837" lon="77.57386">
        <ele>4822</ele>
        <time>2015-09-04T05:31:26Z</time>
      </trkpt>
      <trkpt lat="33.79835" lon="77.57391">
        <ele>4822.4</ele>
        <time>2015-09-04T05:31:31Z</time>
      </trkpt>
      <trkpt lat="33.79832" lon="77.574">
        <ele>4822.8</ele>
        <time>2015-09-04T05:31:40Z</time>
      </trkpt>
      <trkpt lat="33.79831" lon="77.57403">
        <ele>4822.8</ele>
        <time>2015-09-04T05:31:42Z</time>
      </trkpt>
      <trkpt lat="33.7983" lon="77.57407">
        <ele>4823</ele>
        <time>2015-09-04T05:31:46Z</time>
      </trkpt>
      <trkpt lat="33.7983" lon="77.57408">
        <ele>4823</ele>
        <time>2015-09-04T05:31:48Z</time>
      </trkpt>
      <trkpt lat="33.79822" lon="77.5742">
        <ele>4823.6</ele>
        <time>2015-09-04T05:32:08Z</time>
      </trkpt>
      <trkpt lat="33.79821" lon="77.57423">
        <ele>4824</ele>
        <time>2015-09-04T05:32:12Z</time>
      </trkpt>
      <trkpt lat="33.7982" lon="77.57426">
        <ele>4824</ele>
        <time>2015-09-04T05:32:17Z</time>
      </trkpt>
      <trkpt lat="33.79817" lon="77.57426">
        <ele>4824.2</ele>
        <time>2015-09-04T05:32:22Z</time>
      </trkpt>
      <trkpt lat="33.79813" lon="77.57449">
        <ele>4824.8</ele>
        <time>2015-09-04T05:32:42Z</time>
      </trkpt>
      <trkpt lat="33.79809" lon="77.57452">
        <ele>4825</ele>
        <time>2015-09-04T05:32:49Z</time>
      </trkpt>
      <trkpt lat="33.79804" lon="77.57465">
        <ele>4825.6</ele>
        <time>2015-09-04T05:33:08Z</time>
      </trkpt>
      <trkpt lat="33.79792" lon="77.57481">
        <ele>4826.2</ele>
        <time>2015-09-04T05:33:39Z</time>
      </trkpt>
      <trkpt lat="33.79792" lon="77.57491">
        <ele>4826.4</ele>
        <time>2015-09-04T05:33:44Z</time>
      </trkpt>
      <trkpt lat="33.79789" lon="77.57502">
        <ele>4826.8</ele>
        <time>2015-09-04T05:33:52Z</time>
      </trkpt>
      <trkpt lat="33.79787" lon="77.57504">
        <ele>4827.2</ele>
        <time>2015-09-04T05:33:58Z</time>
      </trkpt>
      <trkpt lat="33.79783" lon="77.57515">
        <ele>4827.6</ele>
        <time>2015-09-04T05:34:12Z</time>
      </trkpt>
      <trkpt lat="33.79784" lon="77.5752">
        <ele>4827.4</ele>
        <time>2015-09-04T05:34:15Z</time>
      </trkpt>
      <trkpt lat="33.79784" lon="77.57521">
        <ele>4827.4</ele>
        <time>2015-09-04T05:34:17Z</time>
      </trkpt>
      <trkpt lat="33.79778" lon="77.57538">
        <ele>4827.4</ele>
        <time>2015-09-04T05:34:35Z</time>
      </trkpt>
      <trkpt lat="33.79778" lon="77.57539">
        <ele>4827.4</ele>
        <time>2015-09-04T05:34:37Z</time>
      </trkpt>
      <trkpt lat="33.79776" lon="77.57544">
        <ele>4828.2</ele>
        <time>2015-09-04T05:35:03Z</time>
      </trkpt>
      <trkpt lat="33.79773" lon="77.57558">
        <ele>4828.8</ele>
        <time>2015-09-04T05:35:16Z</time>
      </trkpt>
      <trkpt lat="33.79772" lon="77.57562">
        <ele>4829.4</ele>
        <time>2015-09-04T05:35:23Z</time>
      </trkpt>
      <trkpt lat="33.79766" lon="77.57583">
        <ele>4830.2</ele>
        <time>2015-09-04T05:35:49Z</time>
      </trkpt>
      <trkpt lat="33.79764" lon="77.57583">
        <ele>4830.4</ele>
        <time>2015-09-04T05:35:55Z</time>
      </trkpt>
      <trkpt lat="33.79757" lon="77.57595">
        <ele>4831.2</ele>
        <time>2015-09-04T05:36:15Z</time>
      </trkpt>
      <trkpt lat="33.79756" lon="77.57596">
        <ele>4831.4</ele>
        <time>2015-09-04T05:36:18Z</time>
      </trkpt>
      <trkpt lat="33.79751" lon="77.57617">
        <ele>4831.8</ele>
        <time>2015-09-04T05:36:40Z</time>
      </trkpt>
      <trkpt lat="33.79748" lon="77.57619">
        <ele>4832.4</ele>
        <time>2015-09-04T05:36:48Z</time>
      </trkpt>
      <trkpt lat="33.79745" lon="77.5763">
        <ele>4833.4</ele>
        <time>2015-09-04T05:37:02Z</time>
      </trkpt>
      <trkpt lat="33.79738" lon="77.5764">
        <ele>4834.4</ele>
        <time>2015-09-04T05:37:20Z</time>
      </trkpt>
      <trkpt lat="33.79739" lon="77.57652">
        <ele>4834.6</ele>
        <time>2015-09-04T05:37:29Z</time>
      </trkpt>
      <trkpt lat="33.79739" lon="77.57655">
        <ele>4834.6</ele>
        <time>2015-09-04T05:37:32Z</time>
      </trkpt>
      <trkpt lat="33.79738" lon="77.57657">
        <ele>4834.8</ele>
        <time>2015-09-04T05:37:35Z</time>
      </trkpt>
      <trkpt lat="33.79732" lon="77.57677">
        <ele>4835</ele>
        <time>2015-09-04T05:37:59Z</time>
      </trkpt>
      <trkpt lat="33.79729" lon="77.57681">
        <ele>4835.6</ele>
        <time>2015-09-04T05:38:05Z</time>
      </trkpt>
      <trkpt lat="33.79726" lon="77.57685">
        <ele>4836</ele>
        <time>2015-09-04T05:38:11Z</time>
      </trkpt>
      <trkpt lat="33.79725" lon="77.57686">
        <ele>4836.6</ele>
        <time>2015-09-04T05:38:16Z</time>
      </trkpt>
      <trkpt lat="33.79723" lon="77.57681">
        <ele>4836.6</ele>
        <time>2015-09-04T05:38:18Z</time>
      </trkpt>
      <trkpt lat="33.79717" lon="77.57685">
        <ele>4837.2</ele>
        <time>2015-09-04T05:39:08Z</time>
      </trkpt>
      <trkpt lat="33.7971" lon="77.57703">
        <ele>4837.4</ele>
        <time>2015-09-04T05:39:58Z</time>
      </trkpt>
      <trkpt lat="33.7971" lon="77.57705">
        <ele>4837.4</ele>
        <time>2015-09-04T05:39:59Z</time>
      </trkpt>
      <trkpt lat="33.7971" lon="77.5771">
        <ele>4837.4</ele>
        <time>2015-09-04T05:40:02Z</time>
      </trkpt>
      <trkpt lat="33.79709" lon="77.57711">
        <ele>4837.2</ele>
        <time>2015-09-04T05:40:04Z</time>
      </trkpt>
      <trkpt lat="33.79705" lon="77.57729">
        <ele>4835.6</ele>
        <time>2015-09-04T05:40:28Z</time>
      </trkpt>
      <trkpt lat="33.79701" lon="77.57748">
        <ele>4835.2</ele>
        <time>2015-09-04T05:40:51Z</time>
      </trkpt>
      <trkpt lat="33.79692" lon="77.57759">
        <ele>4835.2</ele>
        <time>2015-09-04T05:41:06Z</time>
      </trkpt>
      <trkpt lat="33.79682" lon="77.57768">
        <ele>4836.6</ele>
        <time>2015-09-04T05:41:24Z</time>
      </trkpt>
      <trkpt lat="33.79679" lon="77.57776">
        <ele>4836.6</ele>
        <time>2015-09-04T05:41:37Z</time>
      </trkpt>
      <trkpt lat="33.79676" lon="77.57787">
        <ele>4837</ele>
        <time>2015-09-04T05:41:48Z</time>
      </trkpt>
      <trkpt lat="33.79675" lon="77.57791">
        <ele>4837</ele>
        <time>2015-09-04T05:41:51Z</time>
      </trkpt>
      <trkpt lat="33.79669" lon="77.57809">
        <ele>4837.6</ele>
        <time>2015-09-04T05:42:08Z</time>
      </trkpt>
      <trkpt lat="33.79668" lon="77.57809">
        <ele>4837.6</ele>
        <time>2015-09-04T05:42:09Z</time>
      </trkpt>
      <trkpt lat="33.79667" lon="77.57811">
        <ele>4837.8</ele>
        <time>2015-09-04T05:42:11Z</time>
      </trkpt>
      <trkpt lat="33.79665" lon="77.57816">
        <ele>4837.8</ele>
        <time>2015-09-04T05:42:16Z</time>
      </trkpt>
      <trkpt lat="33.7966" lon="77.57822">
        <ele>4838.6</ele>
        <time>2015-09-04T05:42:28Z</time>
      </trkpt>
      <trkpt lat="33.7965" lon="77.57838">
        <ele>4839.4</ele>
        <time>2015-09-04T05:42:49Z</time>
      </trkpt>
      <trkpt lat="33.79647" lon="77.57842">
        <ele>4839.6</ele>
        <time>2015-09-04T05:42:56Z</time>
      </trkpt>
      <trkpt lat="33.79642" lon="77.57852">
        <ele>4840</ele>
        <time>2015-09-04T05:43:05Z</time>
      </trkpt>
      <trkpt lat="33.79636" lon="77.57856">
        <ele>4840.6</ele>
        <time>2015-09-04T05:43:18Z</time>
      </trkpt>
      <trkpt lat="33.79634" lon="77.57867">
        <ele>4840.8</ele>
        <time>2015-09-04T05:43:24Z</time>
      </trkpt>
      <trkpt lat="33.79633" lon="77.57871">
        <ele>4841</ele>
        <time>2015-09-04T05:43:28Z</time>
      </trkpt>
      <trkpt lat="33.7963" lon="77.57883">
        <ele>4839.6</ele>
        <time>2015-09-04T05:43:40Z</time>
      </trkpt>
      <trkpt lat="33.79628" lon="77.57886">
        <ele>4839.6</ele>
        <time>2015-09-04T05:43:43Z</time>
      </trkpt>
      <trkpt lat="33.79622" lon="77.57907">
        <ele>4838.8</ele>
        <time>2015-09-04T05:44:05Z</time>
      </trkpt>
      <trkpt lat="33.79619" lon="77.57918">
        <ele>4839.2</ele>
        <time>2015-09-04T05:45:18Z</time>
      </trkpt>
      <trkpt lat="33.79619" lon="77.57918">
        <ele>4838.4</ele>
        <time>2015-09-04T05:45:20Z</time>
      </trkpt>
      <trkpt lat="33.7962" lon="77.57918">
        <ele>4837.8</ele>
        <time>2015-09-04T05:45:26Z</time>
      </trkpt>
      <trkpt lat="33.7962" lon="77.57919">
        <ele>4837.6</ele>
        <time>2015-09-04T05:45:59Z</time>
      </trkpt>
      <trkpt lat="33.79619" lon="77.5792">
        <ele>4837.4</ele>
        <time>2015-09-04T05:46:00Z</time>
      </trkpt>
      <trkpt lat="33.79619" lon="77.57921">
        <ele>4836.4</ele>
        <time>2015-09-04T05:46:44Z</time>
      </trkpt>
      <trkpt lat="33.79613" lon="77.57925">
        <ele>4836</ele>
        <time>2015-09-04T05:46:58Z</time>
      </trkpt>
      <trkpt lat="33.79612" lon="77.57935">
        <ele>4835.6</ele>
        <time>2015-09-04T05:47:09Z</time>
      </trkpt>
      <trkpt lat="33.79608" lon="77.57942">
        <ele>4835.6</ele>
        <time>2015-09-04T05:47:19Z</time>
      </trkpt>
      <trkpt lat="33.79606" lon="77.5795">
        <ele>4835.6</ele>
        <time>2015-09-04T05:47:26Z</time>
      </trkpt>
      <trkpt lat="33.79606" lon="77.57951">
        <ele>4835.2</ele>
        <time>2015-09-04T05:47:28Z</time>
      </trkpt>
      <trkpt lat="33.79603" lon="77.57956">
        <ele>4835</ele>
        <time>2015-09-04T05:47:35Z</time>
      </trkpt>
      <trkpt lat="33.79594" lon="77.57963">
        <ele>4834.4</ele>
        <time>2015-09-04T05:47:48Z</time>
      </trkpt>
      <trkpt lat="33.79593" lon="77.57964">
        <ele>4834.2</ele>
        <time>2015-09-04T05:47:49Z</time>
      </trkpt>
      <trkpt lat="33.79588" lon="77.57983">
        <ele>4833.2</ele>
        <time>2015-09-04T05:48:07Z</time>
      </trkpt>
      <trkpt lat="33.79584" lon="77.57993">
        <ele>4832.2</ele>
        <time>2015-09-04T05:48:20Z</time>
      </trkpt>
      <trkpt lat="33.79583" lon="77.57997">
        <ele>4831.8</ele>
        <time>2015-09-04T05:48:24Z</time>
      </trkpt>
      <trkpt lat="33.79582" lon="77.58001">
        <ele>4831.4</ele>
        <time>2015-09-04T05:48:28Z</time>
      </trkpt>
      <trkpt lat="33.79582" lon="77.58004">
        <ele>4831.2</ele>
        <time>2015-09-04T05:48:30Z</time>
      </trkpt>
      <trkpt lat="33.79581" lon="77.58007">
        <ele>4831</ele>
        <time>2015-09-04T05:48:32Z</time>
      </trkpt>
      <trkpt lat="33.79571" lon="77.58023">
        <ele>4830</ele>
        <time>2015-09-04T05:48:48Z</time>
      </trkpt>
      <trkpt lat="33.79567" lon="77.58031">
        <ele>4830.2</ele>
        <time>2015-09-04T05:48:55Z</time>
      </trkpt>
      <trkpt lat="33.79563" lon="77.58036">
        <ele>4830</ele>
        <time>2015-09-04T05:49:03Z</time>
      </trkpt>
      <trkpt lat="33.79558" lon="77.58055">
        <ele>4829</ele>
        <time>2015-09-04T05:49:20Z</time>
      </trkpt>
      <trkpt lat="33.79558" lon="77.58057">
        <ele>4828.8</ele>
        <time>2015-09-04T05:49:21Z</time>
      </trkpt>
      <trkpt lat="33.79558" lon="77.58059">
        <ele>4828.8</ele>
        <time>2015-09-04T05:49:23Z</time>
      </trkpt>
      <trkpt lat="33.79558" lon="77.58059">
        <ele>4828.8</ele>
        <time>2015-09-04T05:49:25Z</time>
      </trkpt>
      <trkpt lat="33.7956" lon="77.5806">
        <ele>4828.4</ele>
        <time>2015-09-04T05:49:43Z</time>
      </trkpt>
      <trkpt lat="33.79564" lon="77.58063">
        <ele>4827.8</ele>
        <time>2015-09-04T05:49:48Z</time>
      </trkpt>
      <trkpt lat="33.79567" lon="77.58063">
        <ele>4828</ele>
        <time>2015-09-04T05:49:57Z</time>
      </trkpt>
      <trkpt lat="33.79566" lon="77.58065">
        <ele>4828.8</ele>
        <time>2015-09-04T05:51:21Z</time>
      </trkpt>
      <trkpt lat="33.79563" lon="77.58062">
        <ele>4828.6</ele>
        <time>2015-09-04T05:51:54Z</time>
      </trkpt>
      <trkpt lat="33.7956" lon="77.58063">
        <ele>4828.4</ele>
        <time>2015-09-04T05:51:58Z</time>
      </trkpt>
      <trkpt lat="33.79557" lon="77.58075">
        <ele>4828.2</ele>
        <time>2015-09-04T05:52:38Z</time>
      </trkpt>
      <trkpt lat="33.79558" lon="77.58079">
        <ele>4828.4</ele>
        <time>2015-09-04T05:52:42Z</time>
      </trkpt>
      <trkpt lat="33.79556" lon="77.58082">
        <ele>4828.6</ele>
        <time>2015-09-04T05:52:46Z</time>
      </trkpt>
      <trkpt lat="33.79554" lon="77.58086">
        <ele>4828.8</ele>
        <time>2015-09-04T05:52:51Z</time>
      </trkpt>
      <trkpt lat="33.79552" lon="77.58089">
        <ele>4829.4</ele>
        <time>2015-09-04T05:52:56Z</time>
      </trkpt>
      <trkpt lat="33.79544" lon="77.58104">
        <ele>4829.2</ele>
        <time>2015-09-04T05:53:13Z</time>
      </trkpt>
      <trkpt lat="33.79542" lon="77.58105">
        <ele>4829</ele>
        <time>2015-09-04T05:53:15Z</time>
      </trkpt>
      <trkpt lat="33.79539" lon="77.58107">
        <ele>4828.8</ele>
        <time>2015-09-04T05:53:19Z</time>
      </trkpt>
      <trkpt lat="33.79535" lon="77.5812">
        <ele>4828.2</ele>
        <time>2015-09-04T05:53:33Z</time>
      </trkpt>
      <trkpt lat="33.79535" lon="77.58123">
        <ele>4828</ele>
        <time>2015-09-04T05:53:35Z</time>
      </trkpt>
      <trkpt lat="33.79532" lon="77.58124">
        <ele>4827.8</ele>
        <time>2015-09-04T05:53:38Z</time>
      </trkpt>
      <trkpt lat="33.7953" lon="77.58125">
        <ele>4827.8</ele>
        <time>2015-09-04T05:53:40Z</time>
      </trkpt>
      <trkpt lat="33.79529" lon="77.58127">
        <ele>4828</ele>
        <time>2015-09-04T05:53:42Z</time>
      </trkpt>
      <trkpt lat="33.79528" lon="77.58132">
        <ele>4828</ele>
        <time>2015-09-04T05:53:48Z</time>
      </trkpt>
      <trkpt lat="33.79522" lon="77.58138">
        <ele>4828</ele>
        <time>2015-09-04T05:53:56Z</time>
      </trkpt>
      <trkpt lat="33.79521" lon="77.58138">
        <ele>4828</ele>
        <time>2015-09-04T05:53:59Z</time>
      </trkpt>
      <trkpt lat="33.79515" lon="77.58144">
        <ele>4828.2</ele>
        <time>2015-09-04T05:54:13Z</time>
      </trkpt>
      <trkpt lat="33.79505" lon="77.58163">
        <ele>4828.6</ele>
        <time>2015-09-04T05:54:36Z</time>
      </trkpt>
      <trkpt lat="33.79501" lon="77.5817">
        <ele>4828.8</ele>
        <time>2015-09-04T05:54:45Z</time>
      </trkpt>
      <trkpt lat="33.795" lon="77.58171">
        <ele>4828.8</ele>
        <time>2015-09-04T05:54:46Z</time>
      </trkpt>
      <trkpt lat="33.79491" lon="77.5818">
        <ele>4829.6</ele>
        <time>2015-09-04T05:55:10Z</time>
      </trkpt>
      <trkpt lat="33.79491" lon="77.58182">
        <ele>4829.6</ele>
        <time>2015-09-04T05:55:11Z</time>
      </trkpt>
      <trkpt lat="33.7949" lon="77.58184">
        <ele>4829.6</ele>
        <time>2015-09-04T05:55:13Z</time>
      </trkpt>
      <trkpt lat="33.79488" lon="77.58187">
        <ele>4829.6</ele>
        <time>2015-09-04T05:55:17Z</time>
      </trkpt>
      <trkpt lat="33.79487" lon="77.58187">
        <ele>4829.8</ele>
        <time>2015-09-04T05:55:19Z</time>
      </trkpt>
      <trkpt lat="33.79481" lon="77.58206">
        <ele>4829.4</ele>
        <time>2015-09-04T05:55:36Z</time>
      </trkpt>
      <trkpt lat="33.79479" lon="77.58205">
        <ele>4829.2</ele>
        <time>2015-09-04T05:55:39Z</time>
      </trkpt>
      <trkpt lat="33.79472" lon="77.58207">
        <ele>4829</ele>
        <time>2015-09-04T05:56:05Z</time>
      </trkpt>
      <trkpt lat="33.79472" lon="77.58207">
        <ele>4828.8</ele>
        <time>2015-09-04T05:56:06Z</time>
      </trkpt>
      <trkpt lat="33.7947" lon="77.58207">
        <ele>4828.6</ele>
        <time>2015-09-04T05:56:08Z</time>
      </trkpt>
      <trkpt lat="33.79468" lon="77.58214">
        <ele>4828.2</ele>
        <time>2015-09-04T05:56:18Z</time>
      </trkpt>
      <trkpt lat="33.79462" lon="77.58226">
        <ele>4828.4</ele>
        <time>2015-09-04T05:56:30Z</time>
      </trkpt>
      <trkpt lat="33.79459" lon="77.58239">
        <ele>4828</ele>
        <time>2015-09-04T05:56:40Z</time>
      </trkpt>
      <trkpt lat="33.79452" lon="77.58252">
        <ele>4827.8</ele>
        <time>2015-09-04T05:56:53Z</time>
      </trkpt>
      <trkpt lat="33.79442" lon="77.58265">
        <ele>4827.8</ele>
        <time>2015-09-04T05:57:18Z</time>
      </trkpt>
      <trkpt lat="33.79438" lon="77.58287">
        <ele>4828</ele>
        <time>2015-09-04T05:57:42Z</time>
      </trkpt>
      <trkpt lat="33.79438" lon="77.58292">
        <ele>4827.8</ele>
        <time>2015-09-04T05:57:46Z</time>
      </trkpt>
      <trkpt lat="33.79438" lon="77.58294">
        <ele>4827.8</ele>
        <time>2015-09-04T05:57:48Z</time>
      </trkpt>
      <trkpt lat="33.79434" lon="77.58308">
        <ele>4827.8</ele>
        <time>2015-09-04T05:58:27Z</time>
      </trkpt>
      <trkpt lat="33.79432" lon="77.58318">
        <ele>4828.2</ele>
        <time>2015-09-04T05:58:37Z</time>
      </trkpt>
      <trkpt lat="33.79432" lon="77.5832">
        <ele>4828.4</ele>
        <time>2015-09-04T05:58:39Z</time>
      </trkpt>
      <trkpt lat="33.79427" lon="77.58338">
        <ele>4828.4</ele>
        <time>2015-09-04T05:58:57Z</time>
      </trkpt>
      <trkpt lat="33.79425" lon="77.58339">
        <ele>4828.6</ele>
        <time>2015-09-04T05:58:59Z</time>
      </trkpt>
      <trkpt lat="33.79425" lon="77.58342">
        <ele>4828.8</ele>
        <time>2015-09-04T05:59:02Z</time>
      </trkpt>
      <trkpt lat="33.7942" lon="77.58354">
        <ele>4828.6</ele>
        <time>2015-09-04T05:59:17Z</time>
      </trkpt>
      <trkpt lat="33.79419" lon="77.5836">
        <ele>4828.4</ele>
        <time>2015-09-04T05:59:22Z</time>
      </trkpt>
      <trkpt lat="33.79416" lon="77.58367">
        <ele>4828.4</ele>
        <time>2015-09-04T05:59:31Z</time>
      </trkpt>
      <trkpt lat="33.79414" lon="77.58371">
        <ele>4828.4</ele>
        <time>2015-09-04T05:59:36Z</time>
      </trkpt>
      <trkpt lat="33.79412" lon="77.58378">
        <ele>4828</ele>
        <time>2015-09-04T05:59:43Z</time>
      </trkpt>
      <trkpt lat="33.79412" lon="77.58381">
        <ele>4827.8</ele>
        <time>2015-09-04T05:59:45Z</time>
      </trkpt>
      <trkpt lat="33.79411" lon="77.58391">
        <ele>4827.8</ele>
        <time>2015-09-04T05:59:57Z</time>
      </trkpt>
      <trkpt lat="33.79415" lon="77.584">
        <ele>4827.4</ele>
        <time>2015-09-04T06:00:06Z</time>
      </trkpt>
      <trkpt lat="33.79417" lon="77.58402">
        <ele>4827.4</ele>
        <time>2015-09-04T06:00:10Z</time>
      </trkpt>
      <trkpt lat="33.79413" lon="77.58422">
        <ele>4828.6</ele>
        <time>2015-09-04T06:00:31Z</time>
      </trkpt>
      <trkpt lat="33.7941" lon="77.58427">
        <ele>4828.8</ele>
        <time>2015-09-04T06:00:39Z</time>
      </trkpt>
      <trkpt lat="33.79407" lon="77.58433">
        <ele>4830</ele>
        <time>2015-09-04T06:00:47Z</time>
      </trkpt>
      <trkpt lat="33.79407" lon="77.58447">
        <ele>4831</ele>
        <time>2015-09-04T06:01:06Z</time>
      </trkpt>
      <trkpt lat="33.79406" lon="77.58457">
        <ele>4832</ele>
        <time>2015-09-04T06:01:18Z</time>
      </trkpt>
      <trkpt lat="33.79402" lon="77.58462">
        <ele>4833</ele>
        <time>2015-09-04T06:01:30Z</time>
      </trkpt>
      <trkpt lat="33.79393" lon="77.58477">
        <ele>4833.8</ele>
        <time>2015-09-04T06:01:48Z</time>
      </trkpt>
      <trkpt lat="33.79385" lon="77.58495">
        <ele>4834</ele>
        <time>2015-09-04T06:02:05Z</time>
      </trkpt>
      <trkpt lat="33.79384" lon="77.58494">
        <ele>4834</ele>
        <time>2015-09-04T06:02:07Z</time>
      </trkpt>
      <trkpt lat="33.79372" lon="77.58506">
        <ele>4835</ele>
        <time>2015-09-04T06:02:29Z</time>
      </trkpt>
      <trkpt lat="33.7936" lon="77.58514">
        <ele>4835</ele>
        <time>2015-09-04T06:02:52Z</time>
      </trkpt>
      <trkpt lat="33.79349" lon="77.58516">
        <ele>4834.4</ele>
        <time>2015-09-04T06:03:08Z</time>
      </trkpt>
      <trkpt lat="33.79346" lon="77.58524">
        <ele>4834.6</ele>
        <time>2015-09-04T06:03:23Z</time>
      </trkpt>
      <trkpt lat="33.79339" lon="77.58542">
        <ele>4834.6</ele>
        <time>2015-09-04T06:03:38Z</time>
      </trkpt>
      <trkpt lat="33.79336" lon="77.58545">
        <ele>4834.8</ele>
        <time>2015-09-04T06:03:42Z</time>
      </trkpt>
      <trkpt lat="33.79323" lon="77.58557">
        <ele>4835.6</ele>
        <time>2015-09-04T06:04:05Z</time>
      </trkpt>
      <trkpt lat="33.79322" lon="77.58558">
        <ele>4835.8</ele>
        <time>2015-09-04T06:04:06Z</time>
      </trkpt>
      <trkpt lat="33.79318" lon="77.58562">
        <ele>4835.8</ele>
        <time>2015-09-04T06:04:12Z</time>
      </trkpt>
      <trkpt lat="33.79302" lon="77.58572">
        <ele>4834.6</ele>
        <time>2015-09-04T06:04:37Z</time>
      </trkpt>
      <trkpt lat="33.79293" lon="77.58582">
        <ele>4835.8</ele>
        <time>2015-09-04T06:04:52Z</time>
      </trkpt>
      <trkpt lat="33.79292" lon="77.58584">
        <ele>4836</ele>
        <time>2015-09-04T06:04:54Z</time>
      </trkpt>
      <trkpt lat="33.79291" lon="77.58587">
        <ele>4836</ele>
        <time>2015-09-04T06:04:57Z</time>
      </trkpt>
      <trkpt lat="33.79289" lon="77.58588">
        <ele>4836.2</ele>
        <time>2015-09-04T06:05:00Z</time>
      </trkpt>
      <trkpt lat="33.79286" lon="77.58594">
        <ele>4836.4</ele>
        <time>2015-09-04T06:05:08Z</time>
      </trkpt>
      <trkpt lat="33.79273" lon="77.58609">
        <ele>4836.8</ele>
        <time>2015-09-04T06:05:31Z</time>
      </trkpt>
      <trkpt lat="33.79256" lon="77.58616">
        <ele>4836.8</ele>
        <time>2015-09-04T06:05:53Z</time>
      </trkpt>
      <trkpt lat="33.7924" lon="77.58626">
        <ele>4836.8</ele>
        <time>2015-09-04T06:06:15Z</time>
      </trkpt>
      <trkpt lat="33.79239" lon="77.58628">
        <ele>4836.8</ele>
        <time>2015-09-04T06:06:16Z</time>
      </trkpt>
      <trkpt lat="33.79234" lon="77.58639">
        <ele>4836.6</ele>
        <time>2015-09-04T06:06:22Z</time>
      </trkpt>
      <trkpt lat="33.79231" lon="77.58641">
        <ele>4836.6</ele>
        <time>2015-09-04T06:06:26Z</time>
      </trkpt>
      <trkpt lat="33.79229" lon="77.58643">
        <ele>4837.2</ele>
        <time>2015-09-04T06:06:31Z</time>
      </trkpt>
      <trkpt lat="33.79221" lon="77.58649">
        <ele>4838.2</ele>
        <time>2015-09-04T06:06:45Z</time>
      </trkpt>
      <trkpt lat="33.7922" lon="77.58654">
        <ele>4838.4</ele>
        <time>2015-09-04T06:06:54Z</time>
      </trkpt>
      <trkpt lat="33.79215" lon="77.58669">
        <ele>4838</ele>
        <time>2015-09-04T06:07:08Z</time>
      </trkpt>
      <trkpt lat="33.79214" lon="77.58674">
        <ele>4838.2</ele>
        <time>2015-09-04T06:07:12Z</time>
      </trkpt>
      <trkpt lat="33.79207" lon="77.58687">
        <ele>4838.4</ele>
        <time>2015-09-04T06:07:32Z</time>
      </trkpt>
      <trkpt lat="33.79198" lon="77.58697">
        <ele>4839.2</ele>
        <time>2015-09-04T06:07:48Z</time>
      </trkpt>
      <trkpt lat="33.79183" lon="77.58708">
        <ele>4838.8</ele>
        <time>2015-09-04T06:08:14Z</time>
      </trkpt>
      <trkpt lat="33.79179" lon="77.58715">
        <ele>4838.2</ele>
        <time>2015-09-04T06:08:24Z</time>
      </trkpt>
      <trkpt lat="33.79168" lon="77.5873">
        <ele>4837.2</ele>
        <time>2015-09-04T06:08:40Z</time>
      </trkpt>
      <trkpt lat="33.79167" lon="77.58731">
        <ele>4837</ele>
        <time>2015-09-04T06:08:41Z</time>
      </trkpt>
      <trkpt lat="33.79156" lon="77.58738">
        <ele>4836</ele>
        <time>2015-09-04T06:08:53Z</time>
      </trkpt>
      <trkpt lat="33.79144" lon="77.58754">
        <ele>4836.2</ele>
        <time>2015-09-04T06:09:10Z</time>
      </trkpt>
      <trkpt lat="33.79143" lon="77.58755">
        <ele>4836.2</ele>
        <time>2015-09-04T06:09:12Z</time>
      </trkpt>
      <trkpt lat="33.79142" lon="77.5876">
        <ele>4836</ele>
        <time>2015-09-04T06:09:17Z</time>
      </trkpt>
      <trkpt lat="33.79136" lon="77.58767">
        <ele>4835.8</ele>
        <time>2015-09-04T06:09:26Z</time>
      </trkpt>
      <trkpt lat="33.79125" lon="77.58772">
        <ele>4835.8</ele>
        <time>2015-09-04T06:09:43Z</time>
      </trkpt>
      <trkpt lat="33.79117" lon="77.58786">
        <ele>4835.8</ele>
        <time>2015-09-04T06:09:56Z</time>
      </trkpt>
      <trkpt lat="33.79115" lon="77.58789">
        <ele>4835.8</ele>
        <time>2015-09-04T06:09:59Z</time>
      </trkpt>
      <trkpt lat="33.79098" lon="77.58797">
        <ele>4835.2</ele>
        <time>2015-09-04T06:10:18Z</time>
      </trkpt>
      <trkpt lat="33.79094" lon="77.58801">
        <ele>4835</ele>
        <time>2015-09-04T06:10:23Z</time>
      </trkpt>
      <trkpt lat="33.79087" lon="77.5882">
        <ele>4835.2</ele>
        <time>2015-09-04T06:10:41Z</time>
      </trkpt>
      <trkpt lat="33.79078" lon="77.58835">
        <ele>4835.6</ele>
        <time>2015-09-04T06:10:56Z</time>
      </trkpt>
      <trkpt lat="33.79072" lon="77.58839">
        <ele>4835.6</ele>
        <time>2015-09-04T06:11:04Z</time>
      </trkpt>
      <trkpt lat="33.79067" lon="77.58842">
        <ele>4835.6</ele>
        <time>2015-09-04T06:11:10Z</time>
      </trkpt>
      <trkpt lat="33.79063" lon="77.58844">
        <ele>4835.8</ele>
        <time>2015-09-04T06:11:14Z</time>
      </trkpt>
      <trkpt lat="33.79061" lon="77.58847">
        <ele>4836.2</ele>
        <time>2015-09-04T06:11:15Z</time>
      </trkpt>
      <trkpt lat="33.79049" lon="77.58865">
        <ele>4836</ele>
        <time>2015-09-04T06:11:32Z</time>
      </trkpt>
      <trkpt lat="33.79045" lon="77.58876">
        <ele>4836.2</ele>
        <time>2015-09-04T06:11:47Z</time>
      </trkpt>
      <trkpt lat="33.79035" lon="77.58884">
        <ele>4836.4</ele>
        <time>2015-09-04T06:11:58Z</time>
      </trkpt>
      <trkpt lat="33.79027" lon="77.58898">
        <ele>4836.2</ele>
        <time>2015-09-04T06:12:10Z</time>
      </trkpt>
      <trkpt lat="33.79014" lon="77.58909">
        <ele>4836.8</ele>
        <time>2015-09-04T06:12:29Z</time>
      </trkpt>
      <trkpt lat="33.7901" lon="77.58915">
        <ele>4837</ele>
        <time>2015-09-04T06:12:35Z</time>
      </trkpt>
      <trkpt lat="33.79001" lon="77.58929">
        <ele>4837.2</ele>
        <time>2015-09-04T06:12:45Z</time>
      </trkpt>
      <trkpt lat="33.78996" lon="77.58935">
        <ele>4837.4</ele>
        <time>2015-09-04T06:12:53Z</time>
      </trkpt>
      <trkpt lat="33.78992" lon="77.5894">
        <ele>4837.6</ele>
        <time>2015-09-04T06:12:59Z</time>
      </trkpt>
      <trkpt lat="33.78989" lon="77.5894">
        <ele>4838</ele>
        <time>2015-09-04T06:13:08Z</time>
      </trkpt>
      <trkpt lat="33.78986" lon="77.58943">
        <ele>4838.2</ele>
        <time>2015-09-04T06:13:12Z</time>
      </trkpt>
      <trkpt lat="33.78985" lon="77.58945">
        <ele>4838.2</ele>
        <time>2015-09-04T06:13:14Z</time>
      </trkpt>
      <trkpt lat="33.78982" lon="77.5895">
        <ele>4838</ele>
        <time>2015-09-04T06:13:22Z</time>
      </trkpt>
      <trkpt lat="33.7898" lon="77.58951">
        <ele>4838.2</ele>
        <time>2015-09-04T06:13:25Z</time>
      </trkpt>
      <trkpt lat="33.78983" lon="77.58952">
        <ele>4838.2</ele>
        <time>2015-09-04T06:13:27Z</time>
      </trkpt>
      <trkpt lat="33.78982" lon="77.5896">
        <ele>4838.2</ele>
        <time>2015-09-04T06:13:34Z</time>
      </trkpt>
      <trkpt lat="33.78979" lon="77.58962">
        <ele>4838.2</ele>
        <time>2015-09-04T06:13:37Z</time>
      </trkpt>
      <trkpt lat="33.78968" lon="77.58974">
        <ele>4838.2</ele>
        <time>2015-09-04T06:13:47Z</time>
      </trkpt>
      <trkpt lat="33.78963" lon="77.58979">
        <ele>4838.4</ele>
        <time>2015-09-04T06:13:53Z</time>
      </trkpt>
      <trkpt lat="33.78961" lon="77.58982">
        <ele>4838.6</ele>
        <time>2015-09-04T06:13:56Z</time>
      </trkpt>
      <trkpt lat="33.7895" lon="77.58988">
        <ele>4838.8</ele>
        <time>2015-09-04T06:14:09Z</time>
      </trkpt>
      <trkpt lat="33.78947" lon="77.58987">
        <ele>4838.8</ele>
        <time>2015-09-04T06:14:11Z</time>
      </trkpt>
      <trkpt lat="33.7894" lon="77.58991">
        <ele>4838.8</ele>
        <time>2015-09-04T06:14:21Z</time>
      </trkpt>
      <trkpt lat="33.78938" lon="77.58992">
        <ele>4839.2</ele>
        <time>2015-09-04T06:14:24Z</time>
      </trkpt>
      <trkpt lat="33.78937" lon="77.58994">
        <ele>4839.2</ele>
        <time>2015-09-04T06:14:25Z</time>
      </trkpt>
      <trkpt lat="33.78932" lon="77.59001">
        <ele>4839.2</ele>
        <time>2015-09-04T06:14:34Z</time>
      </trkpt>
      <trkpt lat="33.78918" lon="77.59011">
        <ele>4839.6</ele>
        <time>2015-09-04T06:14:58Z</time>
      </trkpt>
      <trkpt lat="33.78915" lon="77.59016">
        <ele>4839.6</ele>
        <time>2015-09-04T06:15:02Z</time>
      </trkpt>
      <trkpt lat="33.78914" lon="77.59018">
        <ele>4839.6</ele>
        <time>2015-09-04T06:15:04Z</time>
      </trkpt>
      <trkpt lat="33.789" lon="77.59035">
        <ele>4839.8</ele>
        <time>2015-09-04T06:15:19Z</time>
      </trkpt>
      <trkpt lat="33.7889" lon="77.59043">
        <ele>4840.2</ele>
        <time>2015-09-04T06:15:30Z</time>
      </trkpt>
      <trkpt lat="33.78889" lon="77.59043">
        <ele>4840.2</ele>
        <time>2015-09-04T06:15:33Z</time>
      </trkpt>
      <trkpt lat="33.78884" lon="77.59052">
        <ele>4840.2</ele>
        <time>2015-09-04T06:15:41Z</time>
      </trkpt>
      <trkpt lat="33.7888" lon="77.59058">
        <ele>4840.2</ele>
        <time>2015-09-04T06:15:47Z</time>
      </trkpt>
      <trkpt lat="33.78869" lon="77.59075">
        <ele>4840.6</ele>
        <time>2015-09-04T06:16:00Z</time>
      </trkpt>
      <trkpt lat="33.78869" lon="77.59077">
        <ele>4840.6</ele>
        <time>2015-09-04T06:16:02Z</time>
      </trkpt>
      <trkpt lat="33.78866" lon="77.59083">
        <ele>4840.6</ele>
        <time>2015-09-04T06:16:10Z</time>
      </trkpt>
      <trkpt lat="33.78856" lon="77.59092">
        <ele>4841</ele>
        <time>2015-09-04T06:16:26Z</time>
      </trkpt>
      <trkpt lat="33.78853" lon="77.59095">
        <ele>4841.2</ele>
        <time>2015-09-04T06:16:31Z</time>
      </trkpt>
      <trkpt lat="33.78847" lon="77.59102">
        <ele>4841.4</ele>
        <time>2015-09-04T06:16:40Z</time>
      </trkpt>
      <trkpt lat="33.78846" lon="77.59105">
        <ele>4841.4</ele>
        <time>2015-09-04T06:16:43Z</time>
      </trkpt>
      <trkpt lat="33.78844" lon="77.59108">
        <ele>4841.2</ele>
        <time>2015-09-04T06:16:48Z</time>
      </trkpt>
      <trkpt lat="33.78837" lon="77.59129">
        <ele>4841.6</ele>
        <time>2015-09-04T06:17:04Z</time>
      </trkpt>
      <trkpt lat="33.7883" lon="77.59145">
        <ele>4842</ele>
        <time>2015-09-04T06:17:19Z</time>
      </trkpt>
      <trkpt lat="33.78828" lon="77.59152">
        <ele>4842</ele>
        <time>2015-09-04T06:17:26Z</time>
      </trkpt>
      <trkpt lat="33.78826" lon="77.59154">
        <ele>4842.2</ele>
        <time>2015-09-04T06:17:28Z</time>
      </trkpt>
      <trkpt lat="33.78824" lon="77.59157">
        <ele>4842.2</ele>
        <time>2015-09-04T06:17:32Z</time>
      </trkpt>
      <trkpt lat="33.7882" lon="77.59161">
        <ele>4842.2</ele>
        <time>2015-09-04T06:17:37Z</time>
      </trkpt>
      <trkpt lat="33.78812" lon="77.59173">
        <ele>4842</ele>
        <time>2015-09-04T06:17:50Z</time>
      </trkpt>
      <trkpt lat="33.78807" lon="77.59176">
        <ele>4842.2</ele>
        <time>2015-09-04T06:17:55Z</time>
      </trkpt>
      <trkpt lat="33.78806" lon="77.59178">
        <ele>4842.2</ele>
        <time>2015-09-04T06:17:57Z</time>
      </trkpt>
      <trkpt lat="33.78806" lon="77.59179">
        <ele>4842.4</ele>
        <time>2015-09-04T06:17:58Z</time>
      </trkpt>
      <trkpt lat="33.78805" lon="77.59183">
        <ele>4842.4</ele>
        <time>2015-09-04T06:18:02Z</time>
      </trkpt>
      <trkpt lat="33.78796" lon="77.59197">
        <ele>4843.2</ele>
        <time>2015-09-04T06:18:19Z</time>
      </trkpt>
      <trkpt lat="33.78795" lon="77.592">
        <ele>4843.4</ele>
        <time>2015-09-04T06:18:22Z</time>
      </trkpt>
      <trkpt lat="33.7879" lon="77.59209">
        <ele>4843.4</ele>
        <time>2015-09-04T06:18:33Z</time>
      </trkpt>
      <trkpt lat="33.7878" lon="77.59216">
        <ele>4843.8</ele>
        <time>2015-09-04T06:18:44Z</time>
      </trkpt>
      <trkpt lat="33.78775" lon="77.59225">
        <ele>4843.8</ele>
        <time>2015-09-04T06:18:52Z</time>
      </trkpt>
      <trkpt lat="33.78769" lon="77.59239">
        <ele>4844.4</ele>
        <time>2015-09-04T06:19:11Z</time>
      </trkpt>
      <trkpt lat="33.78767" lon="77.59257">
        <ele>4845.4</ele>
        <time>2015-09-04T06:19:41Z</time>
      </trkpt>
      <trkpt lat="33.78758" lon="77.59275">
        <ele>4846</ele>
        <time>2015-09-04T06:20:05Z</time>
      </trkpt>
      <trkpt lat="33.78754" lon="77.59276">
        <ele>4846.2</ele>
        <time>2015-09-04T06:20:09Z</time>
      </trkpt>
      <trkpt lat="33.7875" lon="77.59277">
        <ele>4846.4</ele>
        <time>2015-09-04T06:20:13Z</time>
      </trkpt>
      <trkpt lat="33.78749" lon="77.5928">
        <ele>4846.4</ele>
        <time>2015-09-04T06:20:15Z</time>
      </trkpt>
      <trkpt lat="33.78748" lon="77.59282">
        <ele>4846.4</ele>
        <time>2015-09-04T06:20:17Z</time>
      </trkpt>
      <trkpt lat="33.78747" lon="77.59283">
        <ele>4846.6</ele>
        <time>2015-09-04T06:20:19Z</time>
      </trkpt>
      <trkpt lat="33.78745" lon="77.59289">
        <ele>4846.6</ele>
        <time>2015-09-04T06:20:24Z</time>
      </trkpt>
      <trkpt lat="33.78745" lon="77.59295">
        <ele>4846.4</ele>
        <time>2015-09-04T06:20:30Z</time>
      </trkpt>
      <trkpt lat="33.78738" lon="77.59311">
        <ele>4846</ele>
        <time>2015-09-04T06:20:44Z</time>
      </trkpt>
      <trkpt lat="33.78734" lon="77.59317">
        <ele>4846.6</ele>
        <time>2015-09-04T06:20:52Z</time>
      </trkpt>
      <trkpt lat="33.78725" lon="77.59321">
        <ele>4847</ele>
        <time>2015-09-04T06:21:01Z</time>
      </trkpt>
      <trkpt lat="33.78722" lon="77.59328">
        <ele>4847.4</ele>
        <time>2015-09-04T06:21:08Z</time>
      </trkpt>
      <trkpt lat="33.78721" lon="77.5933">
        <ele>4847.6</ele>
        <time>2015-09-04T06:21:11Z</time>
      </trkpt>
      <trkpt lat="33.78714" lon="77.59331">
        <ele>4847.4</ele>
        <time>2015-09-04T06:21:23Z</time>
      </trkpt>
      <trkpt lat="33.78709" lon="77.59338">
        <ele>4847.6</ele>
        <time>2015-09-04T06:21:28Z</time>
      </trkpt>
      <trkpt lat="33.78695" lon="77.59351">
        <ele>4848.2</ele>
        <time>2015-09-04T06:21:53Z</time>
      </trkpt>
      <trkpt lat="33.78687" lon="77.59367">
        <ele>4848.6</ele>
        <time>2015-09-04T06:22:11Z</time>
      </trkpt>
      <trkpt lat="33.78687" lon="77.59371">
        <ele>4848</ele>
        <time>2015-09-04T06:22:22Z</time>
      </trkpt>
      <trkpt lat="33.78687" lon="77.59387">
        <ele>4848.4</ele>
        <time>2015-09-04T06:22:38Z</time>
      </trkpt>
      <trkpt lat="33.78676" lon="77.59401">
        <ele>4848.8</ele>
        <time>2015-09-04T06:23:01Z</time>
      </trkpt>
      <trkpt lat="33.78673" lon="77.59401">
        <ele>4849</ele>
        <time>2015-09-04T06:23:04Z</time>
      </trkpt>
      <trkpt lat="33.78672" lon="77.59402">
        <ele>4849</ele>
        <time>2015-09-04T06:23:06Z</time>
      </trkpt>
      <trkpt lat="33.78664" lon="77.59406">
        <ele>4849.4</ele>
        <time>2015-09-04T06:23:14Z</time>
      </trkpt>
      <trkpt lat="33.78663" lon="77.59406">
        <ele>4849.6</ele>
        <time>2015-09-04T06:23:19Z</time>
      </trkpt>
      <trkpt lat="33.78656" lon="77.5941">
        <ele>4850.2</ele>
        <time>2015-09-04T06:23:32Z</time>
      </trkpt>
      <trkpt lat="33.78656" lon="77.59411">
        <ele>4850.2</ele>
        <time>2015-09-04T06:23:34Z</time>
      </trkpt>
      <trkpt lat="33.78658" lon="77.59408">
        <ele>4850.6</ele>
        <time>2015-09-04T06:23:52Z</time>
      </trkpt>
      <trkpt lat="33.78655" lon="77.59402">
        <ele>4850.6</ele>
        <time>2015-09-04T06:24:09Z</time>
      </trkpt>
      <trkpt lat="33.78652" lon="77.59397">
        <ele>4850.6</ele>
        <time>2015-09-04T06:24:40Z</time>
      </trkpt>
      <trkpt lat="33.78648" lon="77.59399">
        <ele>4851.2</ele>
        <time>2015-09-04T06:25:38Z</time>
      </trkpt>
      <trkpt lat="33.78654" lon="77.59396">
        <ele>4850.6</ele>
        <time>2015-09-04T06:25:52Z</time>
      </trkpt>
      <trkpt lat="33.78655" lon="77.59396">
        <ele>4851.2</ele>
        <time>2015-09-04T06:26:37Z</time>
      </trkpt>
      <trkpt lat="33.78647" lon="77.59398">
        <ele>4851.2</ele>
        <time>2015-09-04T06:26:39Z</time>
      </trkpt>
      <trkpt lat="33.78646" lon="77.59398">
        <ele>4850.8</ele>
        <time>2015-09-04T06:26:41Z</time>
      </trkpt>
      <trkpt lat="33.7865" lon="77.59402">
        <ele>4850.4</ele>
        <time>2015-09-04T06:27:11Z</time>
      </trkpt>
      <trkpt lat="33.78651" lon="77.59402">
        <ele>4850.4</ele>
        <time>2015-09-04T06:27:12Z</time>
      </trkpt>
      <trkpt lat="33.78647" lon="77.59409">
        <ele>4850.8</ele>
        <time>2015-09-04T06:27:24Z</time>
      </trkpt>
      <trkpt lat="33.78651" lon="77.59401">
        <ele>4807.8</ele>
        <time>2015-09-04T06:27:49Z</time>
      </trkpt>
    </trkseg>
  </trk>
</gpx>